<?xml version="1.0" encoding="UTF-8" standalone="no" ?>
<gpx xmlns="http://www.topografix.com/GPX/1/1" xmlns:xsi="http://www.w3.org/2001/XMLSchema-instance" xsi:schemaLocation="http://www.topografix.com/GPX/1/1 http://www.topografix.com/GPX/1/1/gpx.xsd" version="1.1" creator="VisuGPX - https://www.visugpx.com">
  <metadata>
    <name>Cyclo Camping 3/3</name>
    <desc><![CDATA[Labau - Carcassonne avec Lison, Lucine et Zaza.
M2 avec sacoches et remorque.]]></desc>
  </metadata>
  <trk>
    <name><![CDATA[16-AOU-13 12:58:28]]></name>
    <trkseg>
      <trkpt lat="43.09914" lon="2.37905">
        <ele>231.33</ele>
        <time>2013-08-16T09:26:58Z</time>
      </trkpt>
      <trkpt lat="43.09915" lon="2.37908">
        <ele>231.81</ele>
        <time>2013-08-16T09:27:15Z</time>
      </trkpt>
      <trkpt lat="43.09911" lon="2.37938">
        <ele>229.89</ele>
        <time>2013-08-16T09:27:27Z</time>
      </trkpt>
      <trkpt lat="43.09928" lon="2.3795">
        <ele>226.53</ele>
        <time>2013-08-16T09:27:38Z</time>
      </trkpt>
      <trkpt lat="43.09933" lon="2.3795">
        <ele>227.01</ele>
        <time>2013-08-16T09:27:42Z</time>
      </trkpt>
      <trkpt lat="43.09934" lon="2.37949">
        <ele>227.01</ele>
        <time>2013-08-16T09:27:43Z</time>
      </trkpt>
      <trkpt lat="43.09935" lon="2.37948">
        <ele>228.93</ele>
        <time>2013-08-16T09:27:57Z</time>
      </trkpt>
      <trkpt lat="43.09937" lon="2.37949">
        <ele>227.49</ele>
        <time>2013-08-16T09:28:07Z</time>
      </trkpt>
      <trkpt lat="43.09938" lon="2.3795">
        <ele>227.49</ele>
        <time>2013-08-16T09:28:08Z</time>
      </trkpt>
      <trkpt lat="43.09939" lon="2.3795">
        <ele>227.01</ele>
        <time>2013-08-16T09:28:09Z</time>
      </trkpt>
      <trkpt lat="43.0998" lon="2.37963">
        <ele>225.57</ele>
        <time>2013-08-16T09:28:20Z</time>
      </trkpt>
      <trkpt lat="43.10041" lon="2.37984">
        <ele>224.61</ele>
        <time>2013-08-16T09:28:35Z</time>
      </trkpt>
      <trkpt lat="43.1007" lon="2.37966">
        <ele>225.57</ele>
        <time>2013-08-16T09:28:45Z</time>
      </trkpt>
      <trkpt lat="43.10079" lon="2.37954">
        <ele>225.57</ele>
        <time>2013-08-16T09:28:48Z</time>
      </trkpt>
      <trkpt lat="43.10082" lon="2.37951">
        <ele>225.57</ele>
        <time>2013-08-16T09:28:49Z</time>
      </trkpt>
      <trkpt lat="43.10086" lon="2.37949">
        <ele>225.57</ele>
        <time>2013-08-16T09:28:50Z</time>
      </trkpt>
      <trkpt lat="43.10161" lon="2.37933">
        <ele>224.12</ele>
        <time>2013-08-16T09:29:07Z</time>
      </trkpt>
      <trkpt lat="43.10199" lon="2.37925">
        <ele>223.64</ele>
        <time>2013-08-16T09:29:15Z</time>
      </trkpt>
      <trkpt lat="43.10203" lon="2.37923">
        <ele>223.64</ele>
        <time>2013-08-16T09:29:16Z</time>
      </trkpt>
      <trkpt lat="43.10207" lon="2.3792">
        <ele>224.12</ele>
        <time>2013-08-16T09:29:17Z</time>
      </trkpt>
      <trkpt lat="43.10211" lon="2.37916">
        <ele>224.12</ele>
        <time>2013-08-16T09:29:18Z</time>
      </trkpt>
      <trkpt lat="43.10215" lon="2.37913">
        <ele>224.12</ele>
        <time>2013-08-16T09:29:19Z</time>
      </trkpt>
      <trkpt lat="43.10219" lon="2.37909">
        <ele>223.64</ele>
        <time>2013-08-16T09:29:20Z</time>
      </trkpt>
      <trkpt lat="43.10222" lon="2.37905">
        <ele>223.64</ele>
        <time>2013-08-16T09:29:21Z</time>
      </trkpt>
      <trkpt lat="43.10252" lon="2.37854">
        <ele>223.64</ele>
        <time>2013-08-16T09:29:31Z</time>
      </trkpt>
      <trkpt lat="43.10253" lon="2.37847">
        <ele>223.64</ele>
        <time>2013-08-16T09:29:32Z</time>
      </trkpt>
      <trkpt lat="43.10257" lon="2.37749">
        <ele>221.72</ele>
        <time>2013-08-16T09:29:47Z</time>
      </trkpt>
      <trkpt lat="43.10245" lon="2.37634">
        <ele>218.36</ele>
        <time>2013-08-16T09:30:05Z</time>
      </trkpt>
      <trkpt lat="43.10208" lon="2.37528">
        <ele>216.43</ele>
        <time>2013-08-16T09:30:23Z</time>
      </trkpt>
      <trkpt lat="43.10149" lon="2.37433">
        <ele>216.43</ele>
        <time>2013-08-16T09:30:42Z</time>
      </trkpt>
      <trkpt lat="43.10095" lon="2.3735">
        <ele>214.03</ele>
        <time>2013-08-16T09:30:59Z</time>
      </trkpt>
      <trkpt lat="43.10055" lon="2.37315">
        <ele>213.07</ele>
        <time>2013-08-16T09:31:08Z</time>
      </trkpt>
      <trkpt lat="43.10051" lon="2.37309">
        <ele>213.07</ele>
        <time>2013-08-16T09:31:09Z</time>
      </trkpt>
      <trkpt lat="43.10048" lon="2.37302">
        <ele>213.07</ele>
        <time>2013-08-16T09:31:10Z</time>
      </trkpt>
      <trkpt lat="43.10046" lon="2.37294">
        <ele>213.07</ele>
        <time>2013-08-16T09:31:11Z</time>
      </trkpt>
      <trkpt lat="43.10045" lon="2.37286">
        <ele>213.07</ele>
        <time>2013-08-16T09:31:12Z</time>
      </trkpt>
      <trkpt lat="43.10045" lon="2.37278">
        <ele>213.07</ele>
        <time>2013-08-16T09:31:13Z</time>
      </trkpt>
      <trkpt lat="43.10047" lon="2.3727">
        <ele>213.07</ele>
        <time>2013-08-16T09:31:14Z</time>
      </trkpt>
      <trkpt lat="43.10048" lon="2.37263">
        <ele>213.07</ele>
        <time>2013-08-16T09:31:15Z</time>
      </trkpt>
      <trkpt lat="43.10051" lon="2.37255">
        <ele>213.07</ele>
        <time>2013-08-16T09:31:16Z</time>
      </trkpt>
      <trkpt lat="43.10083" lon="2.37148">
        <ele>211.15</ele>
        <time>2013-08-16T09:31:30Z</time>
      </trkpt>
      <trkpt lat="43.10084" lon="2.3714">
        <ele>211.15</ele>
        <time>2013-08-16T09:31:31Z</time>
      </trkpt>
      <trkpt lat="43.10085" lon="2.37132">
        <ele>211.15</ele>
        <time>2013-08-16T09:31:32Z</time>
      </trkpt>
      <trkpt lat="43.10085" lon="2.37092">
        <ele>209.22</ele>
        <time>2013-08-16T09:31:37Z</time>
      </trkpt>
      <trkpt lat="43.10084" lon="2.37084">
        <ele>209.22</ele>
        <time>2013-08-16T09:31:38Z</time>
      </trkpt>
      <trkpt lat="43.10081" lon="2.37068">
        <ele>208.74</ele>
        <time>2013-08-16T09:31:40Z</time>
      </trkpt>
      <trkpt lat="43.1008" lon="2.3706">
        <ele>208.74</ele>
        <time>2013-08-16T09:31:41Z</time>
      </trkpt>
      <trkpt lat="43.1008" lon="2.37051">
        <ele>208.26</ele>
        <time>2013-08-16T09:31:42Z</time>
      </trkpt>
      <trkpt lat="43.10081" lon="2.37043">
        <ele>208.26</ele>
        <time>2013-08-16T09:31:43Z</time>
      </trkpt>
      <trkpt lat="43.10082" lon="2.37034">
        <ele>208.26</ele>
        <time>2013-08-16T09:31:44Z</time>
      </trkpt>
      <trkpt lat="43.10083" lon="2.37026">
        <ele>207.78</ele>
        <time>2013-08-16T09:31:45Z</time>
      </trkpt>
      <trkpt lat="43.10085" lon="2.37018">
        <ele>207.78</ele>
        <time>2013-08-16T09:31:46Z</time>
      </trkpt>
      <trkpt lat="43.10099" lon="2.36916">
        <ele>204.9</ele>
        <time>2013-08-16T09:31:59Z</time>
      </trkpt>
      <trkpt lat="43.10096" lon="2.36885">
        <ele>203.94</ele>
        <time>2013-08-16T09:32:03Z</time>
      </trkpt>
      <trkpt lat="43.10096" lon="2.36877">
        <ele>203.94</ele>
        <time>2013-08-16T09:32:04Z</time>
      </trkpt>
      <trkpt lat="43.10097" lon="2.36869">
        <ele>203.46</ele>
        <time>2013-08-16T09:32:05Z</time>
      </trkpt>
      <trkpt lat="43.10099" lon="2.36853">
        <ele>203.46</ele>
        <time>2013-08-16T09:32:07Z</time>
      </trkpt>
      <trkpt lat="43.10102" lon="2.36845">
        <ele>202.98</ele>
        <time>2013-08-16T09:32:08Z</time>
      </trkpt>
      <trkpt lat="43.10104" lon="2.36838">
        <ele>202.98</ele>
        <time>2013-08-16T09:32:09Z</time>
      </trkpt>
      <trkpt lat="43.10122" lon="2.36783">
        <ele>202.01</ele>
        <time>2013-08-16T09:32:16Z</time>
      </trkpt>
      <trkpt lat="43.10148" lon="2.3662">
        <ele>201.53</ele>
        <time>2013-08-16T09:32:35Z</time>
      </trkpt>
      <trkpt lat="43.10162" lon="2.3655">
        <ele>202.01</ele>
        <time>2013-08-16T09:32:43Z</time>
      </trkpt>
      <trkpt lat="43.10165" lon="2.36542">
        <ele>202.01</ele>
        <time>2013-08-16T09:32:44Z</time>
      </trkpt>
      <trkpt lat="43.10169" lon="2.36535">
        <ele>202.49</ele>
        <time>2013-08-16T09:32:45Z</time>
      </trkpt>
      <trkpt lat="43.10226" lon="2.36448">
        <ele>202.49</ele>
        <time>2013-08-16T09:32:58Z</time>
      </trkpt>
      <trkpt lat="43.10229" lon="2.3644">
        <ele>202.49</ele>
        <time>2013-08-16T09:32:59Z</time>
      </trkpt>
      <trkpt lat="43.10231" lon="2.36432">
        <ele>202.49</ele>
        <time>2013-08-16T09:33:00Z</time>
      </trkpt>
      <trkpt lat="43.10266" lon="2.36274">
        <ele>200.57</ele>
        <time>2013-08-16T09:33:19Z</time>
      </trkpt>
      <trkpt lat="43.10295" lon="2.36164">
        <ele>200.09</ele>
        <time>2013-08-16T09:33:33Z</time>
      </trkpt>
      <trkpt lat="43.10297" lon="2.361">
        <ele>198.17</ele>
        <time>2013-08-16T09:33:40Z</time>
      </trkpt>
      <trkpt lat="43.10269" lon="2.35925">
        <ele>194.32</ele>
        <time>2013-08-16T09:33:57Z</time>
      </trkpt>
      <trkpt lat="43.10279" lon="2.35809">
        <ele>194.32</ele>
        <time>2013-08-16T09:34:08Z</time>
      </trkpt>
      <trkpt lat="43.10283" lon="2.358">
        <ele>193.84</ele>
        <time>2013-08-16T09:34:09Z</time>
      </trkpt>
      <trkpt lat="43.10289" lon="2.35793">
        <ele>193.84</ele>
        <time>2013-08-16T09:34:10Z</time>
      </trkpt>
      <trkpt lat="43.10296" lon="2.35788">
        <ele>193.84</ele>
        <time>2013-08-16T09:34:11Z</time>
      </trkpt>
      <trkpt lat="43.10304" lon="2.35786">
        <ele>193.84</ele>
        <time>2013-08-16T09:34:12Z</time>
      </trkpt>
      <trkpt lat="43.10312" lon="2.35785">
        <ele>193.84</ele>
        <time>2013-08-16T09:34:13Z</time>
      </trkpt>
      <trkpt lat="43.10319" lon="2.35784">
        <ele>193.36</ele>
        <time>2013-08-16T09:34:14Z</time>
      </trkpt>
      <trkpt lat="43.10403" lon="2.35783">
        <ele>193.36</ele>
        <time>2013-08-16T09:34:27Z</time>
      </trkpt>
      <trkpt lat="43.10426" lon="2.35779">
        <ele>193.36</ele>
        <time>2013-08-16T09:34:31Z</time>
      </trkpt>
      <trkpt lat="43.10431" lon="2.35776">
        <ele>192.88</ele>
        <time>2013-08-16T09:34:32Z</time>
      </trkpt>
      <trkpt lat="43.10436" lon="2.35772">
        <ele>192.88</ele>
        <time>2013-08-16T09:34:33Z</time>
      </trkpt>
      <trkpt lat="43.1044" lon="2.35767">
        <ele>192.88</ele>
        <time>2013-08-16T09:34:34Z</time>
      </trkpt>
      <trkpt lat="43.10444" lon="2.35761">
        <ele>192.88</ele>
        <time>2013-08-16T09:34:35Z</time>
      </trkpt>
      <trkpt lat="43.10448" lon="2.35754">
        <ele>192.88</ele>
        <time>2013-08-16T09:34:36Z</time>
      </trkpt>
      <trkpt lat="43.1045" lon="2.35747">
        <ele>192.4</ele>
        <time>2013-08-16T09:34:37Z</time>
      </trkpt>
      <trkpt lat="43.10452" lon="2.35739">
        <ele>192.88</ele>
        <time>2013-08-16T09:34:38Z</time>
      </trkpt>
      <trkpt lat="43.10481" lon="2.35608">
        <ele>190</ele>
        <time>2013-08-16T09:34:55Z</time>
      </trkpt>
      <trkpt lat="43.10491" lon="2.35553">
        <ele>189.04</ele>
        <time>2013-08-16T09:35:02Z</time>
      </trkpt>
      <trkpt lat="43.10489" lon="2.35413">
        <ele>186.15</ele>
        <time>2013-08-16T09:35:19Z</time>
      </trkpt>
      <trkpt lat="43.10488" lon="2.35384">
        <ele>185.67</ele>
        <time>2013-08-16T09:35:23Z</time>
      </trkpt>
      <trkpt lat="43.10489" lon="2.35364">
        <ele>185.19</ele>
        <time>2013-08-16T09:35:26Z</time>
      </trkpt>
      <trkpt lat="43.10489" lon="2.35358">
        <ele>184.71</ele>
        <time>2013-08-16T09:35:27Z</time>
      </trkpt>
      <trkpt lat="43.10487" lon="2.35323">
        <ele>183.27</ele>
        <time>2013-08-16T09:35:32Z</time>
      </trkpt>
      <trkpt lat="43.10465" lon="2.35248">
        <ele>183.27</ele>
        <time>2013-08-16T09:35:41Z</time>
      </trkpt>
      <trkpt lat="43.10463" lon="2.35239">
        <ele>183.27</ele>
        <time>2013-08-16T09:35:42Z</time>
      </trkpt>
      <trkpt lat="43.1046" lon="2.35203">
        <ele>183.75</ele>
        <time>2013-08-16T09:35:47Z</time>
      </trkpt>
      <trkpt lat="43.10459" lon="2.35197">
        <ele>183.75</ele>
        <time>2013-08-16T09:35:48Z</time>
      </trkpt>
      <trkpt lat="43.10457" lon="2.35154">
        <ele>185.67</ele>
        <time>2013-08-16T09:35:56Z</time>
      </trkpt>
      <trkpt lat="43.10455" lon="2.35143">
        <ele>186.15</ele>
        <time>2013-08-16T09:35:58Z</time>
      </trkpt>
      <trkpt lat="43.10455" lon="2.35137">
        <ele>186.15</ele>
        <time>2013-08-16T09:35:59Z</time>
      </trkpt>
      <trkpt lat="43.10454" lon="2.35131">
        <ele>186.15</ele>
        <time>2013-08-16T09:36:00Z</time>
      </trkpt>
      <trkpt lat="43.10453" lon="2.35126">
        <ele>186.15</ele>
        <time>2013-08-16T09:36:01Z</time>
      </trkpt>
      <trkpt lat="43.10451" lon="2.3512">
        <ele>186.15</ele>
        <time>2013-08-16T09:36:02Z</time>
      </trkpt>
      <trkpt lat="43.10448" lon="2.35114">
        <ele>186.15</ele>
        <time>2013-08-16T09:36:03Z</time>
      </trkpt>
      <trkpt lat="43.10429" lon="2.35062">
        <ele>186.15</ele>
        <time>2013-08-16T09:36:11Z</time>
      </trkpt>
      <trkpt lat="43.10425" lon="2.35059">
        <ele>186.15</ele>
        <time>2013-08-16T09:36:12Z</time>
      </trkpt>
      <trkpt lat="43.1042" lon="2.3506">
        <ele>186.15</ele>
        <time>2013-08-16T09:36:13Z</time>
      </trkpt>
      <trkpt lat="43.10415" lon="2.35061">
        <ele>185.67</ele>
        <time>2013-08-16T09:36:14Z</time>
      </trkpt>
      <trkpt lat="43.1041" lon="2.35062">
        <ele>186.15</ele>
        <time>2013-08-16T09:36:15Z</time>
      </trkpt>
      <trkpt lat="43.10335" lon="2.35076">
        <ele>183.27</ele>
        <time>2013-08-16T09:36:28Z</time>
      </trkpt>
      <trkpt lat="43.10273" lon="2.35082">
        <ele>185.67</ele>
        <time>2013-08-16T09:36:41Z</time>
      </trkpt>
      <trkpt lat="43.1027" lon="2.35078">
        <ele>185.67</ele>
        <time>2013-08-16T09:36:42Z</time>
      </trkpt>
      <trkpt lat="43.10268" lon="2.35073">
        <ele>186.15</ele>
        <time>2013-08-16T09:36:43Z</time>
      </trkpt>
      <trkpt lat="43.10267" lon="2.35068">
        <ele>186.15</ele>
        <time>2013-08-16T09:36:44Z</time>
      </trkpt>
      <trkpt lat="43.10265" lon="2.35063">
        <ele>186.15</ele>
        <time>2013-08-16T09:36:45Z</time>
      </trkpt>
      <trkpt lat="43.10264" lon="2.35059">
        <ele>186.15</ele>
        <time>2013-08-16T09:36:46Z</time>
      </trkpt>
      <trkpt lat="43.10256" lon="2.35003">
        <ele>185.19</ele>
        <time>2013-08-16T09:36:58Z</time>
      </trkpt>
      <trkpt lat="43.10246" lon="2.34959">
        <ele>187.11</ele>
        <time>2013-08-16T09:37:07Z</time>
      </trkpt>
      <trkpt lat="43.10246" lon="2.34953">
        <ele>187.11</ele>
        <time>2013-08-16T09:37:08Z</time>
      </trkpt>
      <trkpt lat="43.10245" lon="2.34947">
        <ele>187.11</ele>
        <time>2013-08-16T09:37:09Z</time>
      </trkpt>
      <trkpt lat="43.10228" lon="2.34849">
        <ele>185.67</ele>
        <time>2013-08-16T09:37:25Z</time>
      </trkpt>
      <trkpt lat="43.10212" lon="2.34758">
        <ele>186.15</ele>
        <time>2013-08-16T09:37:42Z</time>
      </trkpt>
      <trkpt lat="43.10193" lon="2.34684">
        <ele>187.11</ele>
        <time>2013-08-16T09:37:57Z</time>
      </trkpt>
      <trkpt lat="43.10168" lon="2.34589">
        <ele>188.56</ele>
        <time>2013-08-16T09:38:16Z</time>
      </trkpt>
      <trkpt lat="43.10155" lon="2.34537">
        <ele>189.52</ele>
        <time>2013-08-16T09:38:28Z</time>
      </trkpt>
      <trkpt lat="43.10151" lon="2.34526">
        <ele>189.52</ele>
        <time>2013-08-16T09:38:30Z</time>
      </trkpt>
      <trkpt lat="43.10149" lon="2.3452">
        <ele>189.52</ele>
        <time>2013-08-16T09:38:31Z</time>
      </trkpt>
      <trkpt lat="43.10118" lon="2.3445">
        <ele>190.48</ele>
        <time>2013-08-16T09:38:44Z</time>
      </trkpt>
      <trkpt lat="43.10105" lon="2.34383">
        <ele>190</ele>
        <time>2013-08-16T09:38:54Z</time>
      </trkpt>
      <trkpt lat="43.10101" lon="2.34365">
        <ele>189.04</ele>
        <time>2013-08-16T09:38:56Z</time>
      </trkpt>
      <trkpt lat="43.10076" lon="2.34283">
        <ele>185.67</ele>
        <time>2013-08-16T09:39:06Z</time>
      </trkpt>
      <trkpt lat="43.10069" lon="2.34268">
        <ele>184.71</ele>
        <time>2013-08-16T09:39:08Z</time>
      </trkpt>
      <trkpt lat="43.10064" lon="2.34262">
        <ele>183.75</ele>
        <time>2013-08-16T09:39:09Z</time>
      </trkpt>
      <trkpt lat="43.10058" lon="2.34256">
        <ele>183.27</ele>
        <time>2013-08-16T09:39:10Z</time>
      </trkpt>
      <trkpt lat="43.10051" lon="2.34252">
        <ele>182.79</ele>
        <time>2013-08-16T09:39:11Z</time>
      </trkpt>
      <trkpt lat="43.10044" lon="2.34248">
        <ele>182.79</ele>
        <time>2013-08-16T09:39:12Z</time>
      </trkpt>
      <trkpt lat="43.10007" lon="2.34228">
        <ele>180.38</ele>
        <time>2013-08-16T09:39:18Z</time>
      </trkpt>
      <trkpt lat="43.1" lon="2.34227">
        <ele>180.38</ele>
        <time>2013-08-16T09:39:19Z</time>
      </trkpt>
      <trkpt lat="43.09993" lon="2.34227">
        <ele>180.38</ele>
        <time>2013-08-16T09:39:20Z</time>
      </trkpt>
      <trkpt lat="43.0998" lon="2.34228">
        <ele>180.38</ele>
        <time>2013-08-16T09:39:22Z</time>
      </trkpt>
      <trkpt lat="43.09923" lon="2.34241">
        <ele>179.9</ele>
        <time>2013-08-16T09:39:30Z</time>
      </trkpt>
      <trkpt lat="43.09917" lon="2.34241">
        <ele>180.38</ele>
        <time>2013-08-16T09:39:31Z</time>
      </trkpt>
      <trkpt lat="43.0991" lon="2.34239">
        <ele>180.38</ele>
        <time>2013-08-16T09:39:32Z</time>
      </trkpt>
      <trkpt lat="43.09905" lon="2.34237">
        <ele>180.87</ele>
        <time>2013-08-16T09:39:33Z</time>
      </trkpt>
      <trkpt lat="43.099" lon="2.34233">
        <ele>180.87</ele>
        <time>2013-08-16T09:39:34Z</time>
      </trkpt>
      <trkpt lat="43.09894" lon="2.3423">
        <ele>181.35</ele>
        <time>2013-08-16T09:39:35Z</time>
      </trkpt>
      <trkpt lat="43.09888" lon="2.34228">
        <ele>181.35</ele>
        <time>2013-08-16T09:39:36Z</time>
      </trkpt>
      <trkpt lat="43.09883" lon="2.34225">
        <ele>181.35</ele>
        <time>2013-08-16T09:39:37Z</time>
      </trkpt>
      <trkpt lat="43.09816" lon="2.34198">
        <ele>183.27</ele>
        <time>2013-08-16T09:39:49Z</time>
      </trkpt>
      <trkpt lat="43.09812" lon="2.34195">
        <ele>183.27</ele>
        <time>2013-08-16T09:39:50Z</time>
      </trkpt>
      <trkpt lat="43.09808" lon="2.34191">
        <ele>183.75</ele>
        <time>2013-08-16T09:39:51Z</time>
      </trkpt>
      <trkpt lat="43.09804" lon="2.34186">
        <ele>183.75</ele>
        <time>2013-08-16T09:39:52Z</time>
      </trkpt>
      <trkpt lat="43.09801" lon="2.34181">
        <ele>184.23</ele>
        <time>2013-08-16T09:39:53Z</time>
      </trkpt>
      <trkpt lat="43.09788" lon="2.34161">
        <ele>183.75</ele>
        <time>2013-08-16T09:39:57Z</time>
      </trkpt>
      <trkpt lat="43.09783" lon="2.34156">
        <ele>183.75</ele>
        <time>2013-08-16T09:39:58Z</time>
      </trkpt>
      <trkpt lat="43.09779" lon="2.34152">
        <ele>183.75</ele>
        <time>2013-08-16T09:39:59Z</time>
      </trkpt>
      <trkpt lat="43.09695" lon="2.34097">
        <ele>181.83</ele>
        <time>2013-08-16T09:40:14Z</time>
      </trkpt>
      <trkpt lat="43.09687" lon="2.34092">
        <ele>180.87</ele>
        <time>2013-08-16T09:40:15Z</time>
      </trkpt>
      <trkpt lat="43.09679" lon="2.34086">
        <ele>180.38</ele>
        <time>2013-08-16T09:40:16Z</time>
      </trkpt>
      <trkpt lat="43.0962" lon="2.34033">
        <ele>181.83</ele>
        <time>2013-08-16T09:40:27Z</time>
      </trkpt>
      <trkpt lat="43.09561" lon="2.33972">
        <ele>183.75</ele>
        <time>2013-08-16T09:40:43Z</time>
      </trkpt>
      <trkpt lat="43.09517" lon="2.3394">
        <ele>184.71</ele>
        <time>2013-08-16T09:40:59Z</time>
      </trkpt>
      <trkpt lat="43.09508" lon="2.33933">
        <ele>184.71</ele>
        <time>2013-08-16T09:41:11Z</time>
      </trkpt>
      <trkpt lat="43.09508" lon="2.33934">
        <ele>185.19</ele>
        <time>2013-08-16T09:41:33Z</time>
      </trkpt>
      <trkpt lat="43.09509" lon="2.33935">
        <ele>185.67</ele>
        <time>2013-08-16T09:42:11Z</time>
      </trkpt>
      <trkpt lat="43.09509" lon="2.33935">
        <ele>185.19</ele>
        <time>2013-08-16T09:42:55Z</time>
      </trkpt>
      <trkpt lat="43.09506" lon="2.33931">
        <ele>185.67</ele>
        <time>2013-08-16T09:43:10Z</time>
      </trkpt>
      <trkpt lat="43.09505" lon="2.33929">
        <ele>185.67</ele>
        <time>2013-08-16T09:43:11Z</time>
      </trkpt>
      <trkpt lat="43.09503" lon="2.33928">
        <ele>185.67</ele>
        <time>2013-08-16T09:43:12Z</time>
      </trkpt>
      <trkpt lat="43.09501" lon="2.33926">
        <ele>185.67</ele>
        <time>2013-08-16T09:43:13Z</time>
      </trkpt>
      <trkpt lat="43.09499" lon="2.33924">
        <ele>185.67</ele>
        <time>2013-08-16T09:43:14Z</time>
      </trkpt>
      <trkpt lat="43.09496" lon="2.33922">
        <ele>185.67</ele>
        <time>2013-08-16T09:43:15Z</time>
      </trkpt>
      <trkpt lat="43.09493" lon="2.3392">
        <ele>185.67</ele>
        <time>2013-08-16T09:43:16Z</time>
      </trkpt>
      <trkpt lat="43.0949" lon="2.33917">
        <ele>185.67</ele>
        <time>2013-08-16T09:43:17Z</time>
      </trkpt>
      <trkpt lat="43.09487" lon="2.33914">
        <ele>185.67</ele>
        <time>2013-08-16T09:43:18Z</time>
      </trkpt>
      <trkpt lat="43.09484" lon="2.33911">
        <ele>185.19</ele>
        <time>2013-08-16T09:43:19Z</time>
      </trkpt>
      <trkpt lat="43.0948" lon="2.33909">
        <ele>185.67</ele>
        <time>2013-08-16T09:43:20Z</time>
      </trkpt>
      <trkpt lat="43.09462" lon="2.33898">
        <ele>184.71</ele>
        <time>2013-08-16T09:43:24Z</time>
      </trkpt>
      <trkpt lat="43.09417" lon="2.33873">
        <ele>179.42</ele>
        <time>2013-08-16T09:43:33Z</time>
      </trkpt>
      <trkpt lat="43.09415" lon="2.33867">
        <ele>178.94</ele>
        <time>2013-08-16T09:43:34Z</time>
      </trkpt>
      <trkpt lat="43.09415" lon="2.33861">
        <ele>178.46</ele>
        <time>2013-08-16T09:43:35Z</time>
      </trkpt>
      <trkpt lat="43.09415" lon="2.33854">
        <ele>178.46</ele>
        <time>2013-08-16T09:43:36Z</time>
      </trkpt>
      <trkpt lat="43.09416" lon="2.33847">
        <ele>177.98</ele>
        <time>2013-08-16T09:43:37Z</time>
      </trkpt>
      <trkpt lat="43.0942" lon="2.33825">
        <ele>177.5</ele>
        <time>2013-08-16T09:43:40Z</time>
      </trkpt>
      <trkpt lat="43.09419" lon="2.33818">
        <ele>177.02</ele>
        <time>2013-08-16T09:43:41Z</time>
      </trkpt>
      <trkpt lat="43.09418" lon="2.33811">
        <ele>177.02</ele>
        <time>2013-08-16T09:43:42Z</time>
      </trkpt>
      <trkpt lat="43.09415" lon="2.33805">
        <ele>176.54</ele>
        <time>2013-08-16T09:43:43Z</time>
      </trkpt>
      <trkpt lat="43.09411" lon="2.338">
        <ele>176.54</ele>
        <time>2013-08-16T09:43:44Z</time>
      </trkpt>
      <trkpt lat="43.09381" lon="2.33741">
        <ele>175.58</ele>
        <time>2013-08-16T09:43:56Z</time>
      </trkpt>
      <trkpt lat="43.09377" lon="2.33736">
        <ele>175.1</ele>
        <time>2013-08-16T09:43:57Z</time>
      </trkpt>
      <trkpt lat="43.09373" lon="2.33731">
        <ele>175.1</ele>
        <time>2013-08-16T09:43:58Z</time>
      </trkpt>
      <trkpt lat="43.09368" lon="2.33727">
        <ele>175.1</ele>
        <time>2013-08-16T09:43:59Z</time>
      </trkpt>
      <trkpt lat="43.09363" lon="2.33723">
        <ele>175.1</ele>
        <time>2013-08-16T09:44:00Z</time>
      </trkpt>
      <trkpt lat="43.09358" lon="2.33718">
        <ele>175.1</ele>
        <time>2013-08-16T09:44:01Z</time>
      </trkpt>
      <trkpt lat="43.09354" lon="2.33713">
        <ele>175.1</ele>
        <time>2013-08-16T09:44:02Z</time>
      </trkpt>
      <trkpt lat="43.09351" lon="2.33707">
        <ele>174.62</ele>
        <time>2013-08-16T09:44:03Z</time>
      </trkpt>
      <trkpt lat="43.09348" lon="2.337">
        <ele>174.62</ele>
        <time>2013-08-16T09:44:04Z</time>
      </trkpt>
      <trkpt lat="43.09346" lon="2.33694">
        <ele>175.1</ele>
        <time>2013-08-16T09:44:05Z</time>
      </trkpt>
      <trkpt lat="43.09344" lon="2.33687">
        <ele>175.1</ele>
        <time>2013-08-16T09:44:06Z</time>
      </trkpt>
      <trkpt lat="43.09335" lon="2.33666">
        <ele>175.1</ele>
        <time>2013-08-16T09:44:10Z</time>
      </trkpt>
      <trkpt lat="43.09299" lon="2.3361">
        <ele>177.98</ele>
        <time>2013-08-16T09:44:25Z</time>
      </trkpt>
      <trkpt lat="43.09251" lon="2.33524">
        <ele>178.46</ele>
        <time>2013-08-16T09:44:43Z</time>
      </trkpt>
      <trkpt lat="43.09199" lon="2.33426">
        <ele>178.46</ele>
        <time>2013-08-16T09:45:03Z</time>
      </trkpt>
      <trkpt lat="43.09143" lon="2.33337">
        <ele>177.02</ele>
        <time>2013-08-16T09:45:19Z</time>
      </trkpt>
      <trkpt lat="43.09077" lon="2.3326">
        <ele>177.98</ele>
        <time>2013-08-16T09:45:35Z</time>
      </trkpt>
      <trkpt lat="43.09" lon="2.33176">
        <ele>178.46</ele>
        <time>2013-08-16T09:45:57Z</time>
      </trkpt>
      <trkpt lat="43.08967" lon="2.33113">
        <ele>177.98</ele>
        <time>2013-08-16T09:46:08Z</time>
      </trkpt>
      <trkpt lat="43.08965" lon="2.33106">
        <ele>177.98</ele>
        <time>2013-08-16T09:46:09Z</time>
      </trkpt>
      <trkpt lat="43.08958" lon="2.33087">
        <ele>177.5</ele>
        <time>2013-08-16T09:46:12Z</time>
      </trkpt>
      <trkpt lat="43.08955" lon="2.33082">
        <ele>177.02</ele>
        <time>2013-08-16T09:46:13Z</time>
      </trkpt>
      <trkpt lat="43.08951" lon="2.33077">
        <ele>177.02</ele>
        <time>2013-08-16T09:46:14Z</time>
      </trkpt>
      <trkpt lat="43.08886" lon="2.32995">
        <ele>177.98</ele>
        <time>2013-08-16T09:46:31Z</time>
      </trkpt>
      <trkpt lat="43.0883" lon="2.32924">
        <ele>179.42</ele>
        <time>2013-08-16T09:46:48Z</time>
      </trkpt>
      <trkpt lat="43.08811" lon="2.32878">
        <ele>179.9</ele>
        <time>2013-08-16T09:46:59Z</time>
      </trkpt>
      <trkpt lat="43.08809" lon="2.32874">
        <ele>179.9</ele>
        <time>2013-08-16T09:47:00Z</time>
      </trkpt>
      <trkpt lat="43.08807" lon="2.32869">
        <ele>179.9</ele>
        <time>2013-08-16T09:47:01Z</time>
      </trkpt>
      <trkpt lat="43.08777" lon="2.32784">
        <ele>179.42</ele>
        <time>2013-08-16T09:47:18Z</time>
      </trkpt>
      <trkpt lat="43.08757" lon="2.3273">
        <ele>177.02</ele>
        <time>2013-08-16T09:47:27Z</time>
      </trkpt>
      <trkpt lat="43.08756" lon="2.32723">
        <ele>176.54</ele>
        <time>2013-08-16T09:47:28Z</time>
      </trkpt>
      <trkpt lat="43.08755" lon="2.32716">
        <ele>176.06</ele>
        <time>2013-08-16T09:47:29Z</time>
      </trkpt>
      <trkpt lat="43.08756" lon="2.32708">
        <ele>175.1</ele>
        <time>2013-08-16T09:47:30Z</time>
      </trkpt>
      <trkpt lat="43.08759" lon="2.327">
        <ele>174.14</ele>
        <time>2013-08-16T09:47:31Z</time>
      </trkpt>
      <trkpt lat="43.08763" lon="2.32692">
        <ele>173.66</ele>
        <time>2013-08-16T09:47:32Z</time>
      </trkpt>
      <trkpt lat="43.08768" lon="2.32686">
        <ele>173.17</ele>
        <time>2013-08-16T09:47:33Z</time>
      </trkpt>
      <trkpt lat="43.08773" lon="2.3268">
        <ele>172.69</ele>
        <time>2013-08-16T09:47:34Z</time>
      </trkpt>
      <trkpt lat="43.08778" lon="2.32676">
        <ele>172.21</ele>
        <time>2013-08-16T09:47:35Z</time>
      </trkpt>
      <trkpt lat="43.08783" lon="2.32674">
        <ele>171.73</ele>
        <time>2013-08-16T09:47:36Z</time>
      </trkpt>
      <trkpt lat="43.08789" lon="2.32676">
        <ele>171.25</ele>
        <time>2013-08-16T09:47:37Z</time>
      </trkpt>
      <trkpt lat="43.08793" lon="2.3268">
        <ele>170.77</ele>
        <time>2013-08-16T09:47:38Z</time>
      </trkpt>
      <trkpt lat="43.08796" lon="2.32685">
        <ele>170.29</ele>
        <time>2013-08-16T09:47:39Z</time>
      </trkpt>
      <trkpt lat="43.088" lon="2.32689">
        <ele>170.29</ele>
        <time>2013-08-16T09:47:40Z</time>
      </trkpt>
      <trkpt lat="43.08804" lon="2.32691">
        <ele>170.29</ele>
        <time>2013-08-16T09:47:41Z</time>
      </trkpt>
      <trkpt lat="43.08809" lon="2.32691">
        <ele>170.29</ele>
        <time>2013-08-16T09:47:42Z</time>
      </trkpt>
      <trkpt lat="43.08812" lon="2.32689">
        <ele>170.29</ele>
        <time>2013-08-16T09:47:43Z</time>
      </trkpt>
      <trkpt lat="43.08814" lon="2.32685">
        <ele>170.77</ele>
        <time>2013-08-16T09:47:44Z</time>
      </trkpt>
      <trkpt lat="43.08814" lon="2.32682">
        <ele>170.77</ele>
        <time>2013-08-16T09:47:45Z</time>
      </trkpt>
      <trkpt lat="43.08814" lon="2.32678">
        <ele>170.77</ele>
        <time>2013-08-16T09:47:46Z</time>
      </trkpt>
      <trkpt lat="43.08814" lon="2.32675">
        <ele>170.77</ele>
        <time>2013-08-16T09:47:47Z</time>
      </trkpt>
      <trkpt lat="43.08814" lon="2.32672">
        <ele>171.25</ele>
        <time>2013-08-16T09:47:48Z</time>
      </trkpt>
      <trkpt lat="43.08805" lon="2.32631">
        <ele>174.14</ele>
        <time>2013-08-16T09:48:02Z</time>
      </trkpt>
      <trkpt lat="43.08785" lon="2.32587">
        <ele>176.54</ele>
        <time>2013-08-16T09:48:17Z</time>
      </trkpt>
      <trkpt lat="43.08784" lon="2.32581">
        <ele>176.54</ele>
        <time>2013-08-16T09:48:18Z</time>
      </trkpt>
      <trkpt lat="43.08784" lon="2.32575">
        <ele>176.06</ele>
        <time>2013-08-16T09:48:19Z</time>
      </trkpt>
      <trkpt lat="43.08784" lon="2.32568">
        <ele>176.06</ele>
        <time>2013-08-16T09:48:20Z</time>
      </trkpt>
      <trkpt lat="43.08785" lon="2.32562">
        <ele>175.58</ele>
        <time>2013-08-16T09:48:21Z</time>
      </trkpt>
      <trkpt lat="43.08787" lon="2.32556">
        <ele>175.58</ele>
        <time>2013-08-16T09:48:22Z</time>
      </trkpt>
      <trkpt lat="43.08789" lon="2.3255">
        <ele>175.1</ele>
        <time>2013-08-16T09:48:23Z</time>
      </trkpt>
      <trkpt lat="43.0879" lon="2.32544">
        <ele>175.1</ele>
        <time>2013-08-16T09:48:24Z</time>
      </trkpt>
      <trkpt lat="43.08791" lon="2.32538">
        <ele>175.1</ele>
        <time>2013-08-16T09:48:25Z</time>
      </trkpt>
      <trkpt lat="43.08792" lon="2.32531">
        <ele>175.1</ele>
        <time>2013-08-16T09:48:26Z</time>
      </trkpt>
      <trkpt lat="43.08792" lon="2.32524">
        <ele>174.62</ele>
        <time>2013-08-16T09:48:27Z</time>
      </trkpt>
      <trkpt lat="43.08791" lon="2.32517">
        <ele>174.62</ele>
        <time>2013-08-16T09:48:28Z</time>
      </trkpt>
      <trkpt lat="43.08783" lon="2.3248">
        <ele>173.66</ele>
        <time>2013-08-16T09:48:33Z</time>
      </trkpt>
      <trkpt lat="43.08746" lon="2.32382">
        <ele>173.66</ele>
        <time>2013-08-16T09:48:50Z</time>
      </trkpt>
      <trkpt lat="43.0874" lon="2.32361">
        <ele>174.14</ele>
        <time>2013-08-16T09:48:54Z</time>
      </trkpt>
      <trkpt lat="43.08732" lon="2.32324">
        <ele>174.14</ele>
        <time>2013-08-16T09:49:01Z</time>
      </trkpt>
      <trkpt lat="43.08716" lon="2.32231">
        <ele>175.1</ele>
        <time>2013-08-16T09:49:17Z</time>
      </trkpt>
      <trkpt lat="43.08704" lon="2.32177">
        <ele>175.58</ele>
        <time>2013-08-16T09:49:27Z</time>
      </trkpt>
      <trkpt lat="43.08702" lon="2.32172">
        <ele>175.58</ele>
        <time>2013-08-16T09:49:28Z</time>
      </trkpt>
      <trkpt lat="43.08667" lon="2.32091">
        <ele>176.06</ele>
        <time>2013-08-16T09:49:45Z</time>
      </trkpt>
      <trkpt lat="43.08643" lon="2.32044">
        <ele>180.38</ele>
        <time>2013-08-16T09:50:02Z</time>
      </trkpt>
      <trkpt lat="43.08619" lon="2.32006">
        <ele>184.23</ele>
        <time>2013-08-16T09:50:21Z</time>
      </trkpt>
      <trkpt lat="43.08602" lon="2.31979">
        <ele>188.08</ele>
        <time>2013-08-16T09:50:36Z</time>
      </trkpt>
      <trkpt lat="43.08589" lon="2.31964">
        <ele>190.48</ele>
        <time>2013-08-16T09:50:46Z</time>
      </trkpt>
      <trkpt lat="43.08589" lon="2.31959">
        <ele>190.48</ele>
        <time>2013-08-16T09:50:50Z</time>
      </trkpt>
      <trkpt lat="43.08589" lon="2.31952">
        <ele>190</ele>
        <time>2013-08-16T09:51:06Z</time>
      </trkpt>
      <trkpt lat="43.0859" lon="2.31942">
        <ele>190</ele>
        <time>2013-08-16T09:51:32Z</time>
      </trkpt>
      <trkpt lat="43.08592" lon="2.3193">
        <ele>188.56</ele>
        <time>2013-08-16T09:51:34Z</time>
      </trkpt>
      <trkpt lat="43.08607" lon="2.31871">
        <ele>182.79</ele>
        <time>2013-08-16T09:51:40Z</time>
      </trkpt>
      <trkpt lat="43.08613" lon="2.3186">
        <ele>181.83</ele>
        <time>2013-08-16T09:51:41Z</time>
      </trkpt>
      <trkpt lat="43.08631" lon="2.31825">
        <ele>178.94</ele>
        <time>2013-08-16T09:51:44Z</time>
      </trkpt>
      <trkpt lat="43.08635" lon="2.31813">
        <ele>177.98</ele>
        <time>2013-08-16T09:51:45Z</time>
      </trkpt>
      <trkpt lat="43.08638" lon="2.318">
        <ele>177.02</ele>
        <time>2013-08-16T09:51:46Z</time>
      </trkpt>
      <trkpt lat="43.08639" lon="2.31787">
        <ele>176.06</ele>
        <time>2013-08-16T09:51:47Z</time>
      </trkpt>
      <trkpt lat="43.0864" lon="2.31775">
        <ele>175.1</ele>
        <time>2013-08-16T09:51:48Z</time>
      </trkpt>
      <trkpt lat="43.0864" lon="2.31764">
        <ele>174.62</ele>
        <time>2013-08-16T09:51:49Z</time>
      </trkpt>
      <trkpt lat="43.08642" lon="2.31731">
        <ele>173.66</ele>
        <time>2013-08-16T09:51:52Z</time>
      </trkpt>
      <trkpt lat="43.08645" lon="2.31722">
        <ele>173.66</ele>
        <time>2013-08-16T09:51:53Z</time>
      </trkpt>
      <trkpt lat="43.08649" lon="2.31713">
        <ele>173.17</ele>
        <time>2013-08-16T09:51:54Z</time>
      </trkpt>
      <trkpt lat="43.08711" lon="2.316">
        <ele>170.29</ele>
        <time>2013-08-16T09:52:08Z</time>
      </trkpt>
      <trkpt lat="43.08771" lon="2.31496">
        <ele>168.37</ele>
        <time>2013-08-16T09:52:22Z</time>
      </trkpt>
      <trkpt lat="43.08792" lon="2.31427">
        <ele>166.93</ele>
        <time>2013-08-16T09:52:31Z</time>
      </trkpt>
      <trkpt lat="43.08794" lon="2.31419">
        <ele>166.93</ele>
        <time>2013-08-16T09:52:32Z</time>
      </trkpt>
      <trkpt lat="43.08795" lon="2.31411">
        <ele>167.41</ele>
        <time>2013-08-16T09:52:33Z</time>
      </trkpt>
      <trkpt lat="43.08797" lon="2.31404">
        <ele>167.41</ele>
        <time>2013-08-16T09:52:34Z</time>
      </trkpt>
      <trkpt lat="43.088" lon="2.31398">
        <ele>167.41</ele>
        <time>2013-08-16T09:52:35Z</time>
      </trkpt>
      <trkpt lat="43.08803" lon="2.31393">
        <ele>167.41</ele>
        <time>2013-08-16T09:52:36Z</time>
      </trkpt>
      <trkpt lat="43.08806" lon="2.31389">
        <ele>167.41</ele>
        <time>2013-08-16T09:52:37Z</time>
      </trkpt>
      <trkpt lat="43.08818" lon="2.31373">
        <ele>166.93</ele>
        <time>2013-08-16T09:52:41Z</time>
      </trkpt>
      <trkpt lat="43.08821" lon="2.31369">
        <ele>166.93</ele>
        <time>2013-08-16T09:52:42Z</time>
      </trkpt>
      <trkpt lat="43.08855" lon="2.31329">
        <ele>168.37</ele>
        <time>2013-08-16T09:52:56Z</time>
      </trkpt>
      <trkpt lat="43.0889" lon="2.31313">
        <ele>170.29</ele>
        <time>2013-08-16T09:53:09Z</time>
      </trkpt>
      <trkpt lat="43.08913" lon="2.31303">
        <ele>170.77</ele>
        <time>2013-08-16T09:53:15Z</time>
      </trkpt>
      <trkpt lat="43.08928" lon="2.31296">
        <ele>171.25</ele>
        <time>2013-08-16T09:53:19Z</time>
      </trkpt>
      <trkpt lat="43.09006" lon="2.31262">
        <ele>175.1</ele>
        <time>2013-08-16T09:53:38Z</time>
      </trkpt>
      <trkpt lat="43.09019" lon="2.31256">
        <ele>174.62</ele>
        <time>2013-08-16T09:53:41Z</time>
      </trkpt>
      <trkpt lat="43.09052" lon="2.31233">
        <ele>174.62</ele>
        <time>2013-08-16T09:53:49Z</time>
      </trkpt>
      <trkpt lat="43.09056" lon="2.31229">
        <ele>174.62</ele>
        <time>2013-08-16T09:53:50Z</time>
      </trkpt>
      <trkpt lat="43.0906" lon="2.31226">
        <ele>174.62</ele>
        <time>2013-08-16T09:53:51Z</time>
      </trkpt>
      <trkpt lat="43.09082" lon="2.31214">
        <ele>175.1</ele>
        <time>2013-08-16T09:53:56Z</time>
      </trkpt>
      <trkpt lat="43.09094" lon="2.31206">
        <ele>175.1</ele>
        <time>2013-08-16T09:53:59Z</time>
      </trkpt>
      <trkpt lat="43.09119" lon="2.31187">
        <ele>176.06</ele>
        <time>2013-08-16T09:54:05Z</time>
      </trkpt>
      <trkpt lat="43.09124" lon="2.31185">
        <ele>176.06</ele>
        <time>2013-08-16T09:54:06Z</time>
      </trkpt>
      <trkpt lat="43.09165" lon="2.31172">
        <ele>176.06</ele>
        <time>2013-08-16T09:54:15Z</time>
      </trkpt>
      <trkpt lat="43.09191" lon="2.31159">
        <ele>176.54</ele>
        <time>2013-08-16T09:54:21Z</time>
      </trkpt>
      <trkpt lat="43.092" lon="2.31155">
        <ele>176.54</ele>
        <time>2013-08-16T09:54:23Z</time>
      </trkpt>
      <trkpt lat="43.0926" lon="2.31104">
        <ele>176.06</ele>
        <time>2013-08-16T09:54:37Z</time>
      </trkpt>
      <trkpt lat="43.09264" lon="2.31099">
        <ele>175.58</ele>
        <time>2013-08-16T09:54:38Z</time>
      </trkpt>
      <trkpt lat="43.09268" lon="2.31094">
        <ele>175.1</ele>
        <time>2013-08-16T09:54:39Z</time>
      </trkpt>
      <trkpt lat="43.09271" lon="2.31089">
        <ele>174.62</ele>
        <time>2013-08-16T09:54:40Z</time>
      </trkpt>
      <trkpt lat="43.09275" lon="2.31085">
        <ele>174.14</ele>
        <time>2013-08-16T09:54:41Z</time>
      </trkpt>
      <trkpt lat="43.09281" lon="2.31081">
        <ele>173.66</ele>
        <time>2013-08-16T09:54:42Z</time>
      </trkpt>
      <trkpt lat="43.09287" lon="2.31079">
        <ele>173.66</ele>
        <time>2013-08-16T09:54:43Z</time>
      </trkpt>
      <trkpt lat="43.09292" lon="2.31077">
        <ele>173.66</ele>
        <time>2013-08-16T09:54:44Z</time>
      </trkpt>
      <trkpt lat="43.09298" lon="2.31076">
        <ele>173.66</ele>
        <time>2013-08-16T09:54:45Z</time>
      </trkpt>
      <trkpt lat="43.09302" lon="2.31075">
        <ele>174.14</ele>
        <time>2013-08-16T09:54:46Z</time>
      </trkpt>
      <trkpt lat="43.09371" lon="2.31059">
        <ele>175.58</ele>
        <time>2013-08-16T09:55:01Z</time>
      </trkpt>
      <trkpt lat="43.09375" lon="2.31057">
        <ele>175.58</ele>
        <time>2013-08-16T09:55:02Z</time>
      </trkpt>
      <trkpt lat="43.09378" lon="2.31054">
        <ele>176.06</ele>
        <time>2013-08-16T09:55:03Z</time>
      </trkpt>
      <trkpt lat="43.09382" lon="2.3105">
        <ele>175.58</ele>
        <time>2013-08-16T09:55:04Z</time>
      </trkpt>
      <trkpt lat="43.09385" lon="2.31046">
        <ele>175.1</ele>
        <time>2013-08-16T09:55:05Z</time>
      </trkpt>
      <trkpt lat="43.09388" lon="2.31042">
        <ele>175.1</ele>
        <time>2013-08-16T09:55:06Z</time>
      </trkpt>
      <trkpt lat="43.09391" lon="2.31037">
        <ele>174.62</ele>
        <time>2013-08-16T09:55:07Z</time>
      </trkpt>
      <trkpt lat="43.09394" lon="2.31031">
        <ele>174.14</ele>
        <time>2013-08-16T09:55:08Z</time>
      </trkpt>
      <trkpt lat="43.09396" lon="2.31026">
        <ele>174.14</ele>
        <time>2013-08-16T09:55:09Z</time>
      </trkpt>
      <trkpt lat="43.0941" lon="2.30997">
        <ele>173.17</ele>
        <time>2013-08-16T09:55:14Z</time>
      </trkpt>
      <trkpt lat="43.09412" lon="2.3099">
        <ele>173.17</ele>
        <time>2013-08-16T09:55:15Z</time>
      </trkpt>
      <trkpt lat="43.09413" lon="2.30983">
        <ele>173.17</ele>
        <time>2013-08-16T09:55:16Z</time>
      </trkpt>
      <trkpt lat="43.09421" lon="2.30953">
        <ele>172.21</ele>
        <time>2013-08-16T09:55:20Z</time>
      </trkpt>
      <trkpt lat="43.09423" lon="2.30947">
        <ele>172.21</ele>
        <time>2013-08-16T09:55:21Z</time>
      </trkpt>
      <trkpt lat="43.09444" lon="2.30922">
        <ele>173.17</ele>
        <time>2013-08-16T09:55:31Z</time>
      </trkpt>
      <trkpt lat="43.09483" lon="2.30931">
        <ele>171.25</ele>
        <time>2013-08-16T09:55:42Z</time>
      </trkpt>
      <trkpt lat="43.09493" lon="2.30931">
        <ele>170.29</ele>
        <time>2013-08-16T09:55:44Z</time>
      </trkpt>
      <trkpt lat="43.09563" lon="2.30949">
        <ele>166.93</ele>
        <time>2013-08-16T09:55:57Z</time>
      </trkpt>
      <trkpt lat="43.09618" lon="2.30961">
        <ele>169.81</ele>
        <time>2013-08-16T09:56:11Z</time>
      </trkpt>
      <trkpt lat="43.09659" lon="2.30959">
        <ele>175.58</ele>
        <time>2013-08-16T09:56:24Z</time>
      </trkpt>
      <trkpt lat="43.09716" lon="2.30966">
        <ele>177.02</ele>
        <time>2013-08-16T09:56:40Z</time>
      </trkpt>
      <trkpt lat="43.0979" lon="2.31002">
        <ele>174.14</ele>
        <time>2013-08-16T09:56:56Z</time>
      </trkpt>
      <trkpt lat="43.09879" lon="2.31034">
        <ele>170.29</ele>
        <time>2013-08-16T09:57:13Z</time>
      </trkpt>
      <trkpt lat="43.0997" lon="2.31038">
        <ele>165.48</ele>
        <time>2013-08-16T09:57:29Z</time>
      </trkpt>
      <trkpt lat="43.10012" lon="2.31045">
        <ele>164.04</ele>
        <time>2013-08-16T09:57:36Z</time>
      </trkpt>
      <trkpt lat="43.10017" lon="2.31048">
        <ele>163.56</ele>
        <time>2013-08-16T09:57:37Z</time>
      </trkpt>
      <trkpt lat="43.10022" lon="2.31052">
        <ele>163.56</ele>
        <time>2013-08-16T09:57:38Z</time>
      </trkpt>
      <trkpt lat="43.10027" lon="2.31057">
        <ele>163.56</ele>
        <time>2013-08-16T09:57:39Z</time>
      </trkpt>
      <trkpt lat="43.10031" lon="2.31063">
        <ele>163.08</ele>
        <time>2013-08-16T09:57:40Z</time>
      </trkpt>
      <trkpt lat="43.10034" lon="2.3107">
        <ele>163.08</ele>
        <time>2013-08-16T09:57:41Z</time>
      </trkpt>
      <trkpt lat="43.10038" lon="2.31076">
        <ele>163.08</ele>
        <time>2013-08-16T09:57:42Z</time>
      </trkpt>
      <trkpt lat="43.10041" lon="2.31083">
        <ele>162.6</ele>
        <time>2013-08-16T09:57:43Z</time>
      </trkpt>
      <trkpt lat="43.10097" lon="2.31202">
        <ele>162.6</ele>
        <time>2013-08-16T09:58:02Z</time>
      </trkpt>
      <trkpt lat="43.10146" lon="2.31307">
        <ele>161.64</ele>
        <time>2013-08-16T09:58:21Z</time>
      </trkpt>
      <trkpt lat="43.10189" lon="2.31393">
        <ele>162.12</ele>
        <time>2013-08-16T09:58:40Z</time>
      </trkpt>
      <trkpt lat="43.10235" lon="2.31469">
        <ele>163.08</ele>
        <time>2013-08-16T09:59:00Z</time>
      </trkpt>
      <trkpt lat="43.10285" lon="2.31547">
        <ele>164.04</ele>
        <time>2013-08-16T09:59:20Z</time>
      </trkpt>
      <trkpt lat="43.10328" lon="2.31616">
        <ele>165.96</ele>
        <time>2013-08-16T09:59:37Z</time>
      </trkpt>
      <trkpt lat="43.10386" lon="2.31697">
        <ele>164.52</ele>
        <time>2013-08-16T09:59:55Z</time>
      </trkpt>
      <trkpt lat="43.10466" lon="2.31764">
        <ele>162.6</ele>
        <time>2013-08-16T10:00:15Z</time>
      </trkpt>
      <trkpt lat="43.10539" lon="2.31783">
        <ele>162.12</ele>
        <time>2013-08-16T10:00:29Z</time>
      </trkpt>
      <trkpt lat="43.10645" lon="2.31758">
        <ele>160.68</ele>
        <time>2013-08-16T10:00:45Z</time>
      </trkpt>
      <trkpt lat="43.10791" lon="2.31714">
        <ele>159.72</ele>
        <time>2013-08-16T10:01:06Z</time>
      </trkpt>
      <trkpt lat="43.10898" lon="2.31664">
        <ele>160.2</ele>
        <time>2013-08-16T10:01:22Z</time>
      </trkpt>
      <trkpt lat="43.10985" lon="2.31622">
        <ele>164.52</ele>
        <time>2013-08-16T10:01:37Z</time>
      </trkpt>
      <trkpt lat="43.10996" lon="2.31618">
        <ele>165</ele>
        <time>2013-08-16T10:01:39Z</time>
      </trkpt>
      <trkpt lat="43.11092" lon="2.31607">
        <ele>165.48</ele>
        <time>2013-08-16T10:01:58Z</time>
      </trkpt>
      <trkpt lat="43.11171" lon="2.31591">
        <ele>164.52</ele>
        <time>2013-08-16T10:02:16Z</time>
      </trkpt>
      <trkpt lat="43.1118" lon="2.3159">
        <ele>164.52</ele>
        <time>2013-08-16T10:02:18Z</time>
      </trkpt>
      <trkpt lat="43.11185" lon="2.31591">
        <ele>164.52</ele>
        <time>2013-08-16T10:02:19Z</time>
      </trkpt>
      <trkpt lat="43.1119" lon="2.31592">
        <ele>164.04</ele>
        <time>2013-08-16T10:02:20Z</time>
      </trkpt>
      <trkpt lat="43.11251" lon="2.31615">
        <ele>160.68</ele>
        <time>2013-08-16T10:02:35Z</time>
      </trkpt>
      <trkpt lat="43.11336" lon="2.31638">
        <ele>155.87</ele>
        <time>2013-08-16T10:02:56Z</time>
      </trkpt>
      <trkpt lat="43.11401" lon="2.3165">
        <ele>154.91</ele>
        <time>2013-08-16T10:03:12Z</time>
      </trkpt>
      <trkpt lat="43.11489" lon="2.31661">
        <ele>153.47</ele>
        <time>2013-08-16T10:03:32Z</time>
      </trkpt>
      <trkpt lat="43.11545" lon="2.31671">
        <ele>151.54</ele>
        <time>2013-08-16T10:03:47Z</time>
      </trkpt>
      <trkpt lat="43.11629" lon="2.31696">
        <ele>150.58</ele>
        <time>2013-08-16T10:04:08Z</time>
      </trkpt>
      <trkpt lat="43.11697" lon="2.31727">
        <ele>149.62</ele>
        <time>2013-08-16T10:04:26Z</time>
      </trkpt>
      <trkpt lat="43.11746" lon="2.31739">
        <ele>148.18</ele>
        <time>2013-08-16T10:04:38Z</time>
      </trkpt>
      <trkpt lat="43.11818" lon="2.31739">
        <ele>150.1</ele>
        <time>2013-08-16T10:04:58Z</time>
      </trkpt>
      <trkpt lat="43.1186" lon="2.31708">
        <ele>152.99</ele>
        <time>2013-08-16T10:05:14Z</time>
      </trkpt>
      <trkpt lat="43.11908" lon="2.3166">
        <ele>155.39</ele>
        <time>2013-08-16T10:05:33Z</time>
      </trkpt>
      <trkpt lat="43.1195" lon="2.31629">
        <ele>155.87</ele>
        <time>2013-08-16T10:05:50Z</time>
      </trkpt>
      <trkpt lat="43.11984" lon="2.31613">
        <ele>157.31</ele>
        <time>2013-08-16T10:06:06Z</time>
      </trkpt>
      <trkpt lat="43.11985" lon="2.31613">
        <ele>158.27</ele>
        <time>2013-08-16T10:06:19Z</time>
      </trkpt>
      <trkpt lat="43.11997" lon="2.31607">
        <ele>158.27</ele>
        <time>2013-08-16T10:06:40Z</time>
      </trkpt>
      <trkpt lat="43.12055" lon="2.31604">
        <ele>158.27</ele>
        <time>2013-08-16T10:06:54Z</time>
      </trkpt>
      <trkpt lat="43.1209" lon="2.31618">
        <ele>156.35</ele>
        <time>2013-08-16T10:07:01Z</time>
      </trkpt>
      <trkpt lat="43.12117" lon="2.31641">
        <ele>153.95</ele>
        <time>2013-08-16T10:07:06Z</time>
      </trkpt>
      <trkpt lat="43.12184" lon="2.31749">
        <ele>148.66</ele>
        <time>2013-08-16T10:07:22Z</time>
      </trkpt>
      <trkpt lat="43.12213" lon="2.31853">
        <ele>147.22</ele>
        <time>2013-08-16T10:07:36Z</time>
      </trkpt>
      <trkpt lat="43.12237" lon="2.31977">
        <ele>146.26</ele>
        <time>2013-08-16T10:07:55Z</time>
      </trkpt>
      <trkpt lat="43.12273" lon="2.32036">
        <ele>145.3</ele>
        <time>2013-08-16T10:08:06Z</time>
      </trkpt>
      <trkpt lat="43.12277" lon="2.32041">
        <ele>145.3</ele>
        <time>2013-08-16T10:08:07Z</time>
      </trkpt>
      <trkpt lat="43.12358" lon="2.3211">
        <ele>144.82</ele>
        <time>2013-08-16T10:08:24Z</time>
      </trkpt>
      <trkpt lat="43.1244" lon="2.32176">
        <ele>145.78</ele>
        <time>2013-08-16T10:08:43Z</time>
      </trkpt>
      <trkpt lat="43.12517" lon="2.32238">
        <ele>147.7</ele>
        <time>2013-08-16T10:09:03Z</time>
      </trkpt>
      <trkpt lat="43.12555" lon="2.32263">
        <ele>147.7</ele>
        <time>2013-08-16T10:09:12Z</time>
      </trkpt>
      <trkpt lat="43.12564" lon="2.32268">
        <ele>147.22</ele>
        <time>2013-08-16T10:09:14Z</time>
      </trkpt>
      <trkpt lat="43.12642" lon="2.32326">
        <ele>147.22</ele>
        <time>2013-08-16T10:09:31Z</time>
      </trkpt>
      <trkpt lat="43.12705" lon="2.32394">
        <ele>146.74</ele>
        <time>2013-08-16T10:09:46Z</time>
      </trkpt>
      <trkpt lat="43.12771" lon="2.3246">
        <ele>143.85</ele>
        <time>2013-08-16T10:10:01Z</time>
      </trkpt>
      <trkpt lat="43.12862" lon="2.32511">
        <ele>144.34</ele>
        <time>2013-08-16T10:10:20Z</time>
      </trkpt>
      <trkpt lat="43.12937" lon="2.32514">
        <ele>146.26</ele>
        <time>2013-08-16T10:10:36Z</time>
      </trkpt>
      <trkpt lat="43.13019" lon="2.32485">
        <ele>146.26</ele>
        <time>2013-08-16T10:10:54Z</time>
      </trkpt>
      <trkpt lat="43.1311" lon="2.32453">
        <ele>146.26</ele>
        <time>2013-08-16T10:11:13Z</time>
      </trkpt>
      <trkpt lat="43.13198" lon="2.32412">
        <ele>145.3</ele>
        <time>2013-08-16T10:11:32Z</time>
      </trkpt>
      <trkpt lat="43.13272" lon="2.32346">
        <ele>146.74</ele>
        <time>2013-08-16T10:11:48Z</time>
      </trkpt>
      <trkpt lat="43.13367" lon="2.32276">
        <ele>145.3</ele>
        <time>2013-08-16T10:12:07Z</time>
      </trkpt>
      <trkpt lat="43.13473" lon="2.32254">
        <ele>144.34</ele>
        <time>2013-08-16T10:12:26Z</time>
      </trkpt>
      <trkpt lat="43.13579" lon="2.32245">
        <ele>143.37</ele>
        <time>2013-08-16T10:12:46Z</time>
      </trkpt>
      <trkpt lat="43.13682" lon="2.32281">
        <ele>140.97</ele>
        <time>2013-08-16T10:13:04Z</time>
      </trkpt>
      <trkpt lat="43.1376" lon="2.32337">
        <ele>140.01</ele>
        <time>2013-08-16T10:13:22Z</time>
      </trkpt>
      <trkpt lat="43.13847" lon="2.3237">
        <ele>139.53</ele>
        <time>2013-08-16T10:13:39Z</time>
      </trkpt>
      <trkpt lat="43.13956" lon="2.32409">
        <ele>139.53</ele>
        <time>2013-08-16T10:14:00Z</time>
      </trkpt>
      <trkpt lat="43.14061" lon="2.32435">
        <ele>140.01</ele>
        <time>2013-08-16T10:14:22Z</time>
      </trkpt>
      <trkpt lat="43.14128" lon="2.32425">
        <ele>138.57</ele>
        <time>2013-08-16T10:14:37Z</time>
      </trkpt>
      <trkpt lat="43.14206" lon="2.32401">
        <ele>140.01</ele>
        <time>2013-08-16T10:14:56Z</time>
      </trkpt>
      <trkpt lat="43.14211" lon="2.324">
        <ele>140.01</ele>
        <time>2013-08-16T10:14:57Z</time>
      </trkpt>
      <trkpt lat="43.14216" lon="2.32399">
        <ele>140.01</ele>
        <time>2013-08-16T10:14:58Z</time>
      </trkpt>
      <trkpt lat="43.1422" lon="2.32399">
        <ele>140.49</ele>
        <time>2013-08-16T10:14:59Z</time>
      </trkpt>
      <trkpt lat="43.1429" lon="2.32418">
        <ele>139.53</ele>
        <time>2013-08-16T10:15:15Z</time>
      </trkpt>
      <trkpt lat="43.14366" lon="2.32442">
        <ele>138.57</ele>
        <time>2013-08-16T10:15:32Z</time>
      </trkpt>
      <trkpt lat="43.14443" lon="2.32432">
        <ele>138.09</ele>
        <time>2013-08-16T10:15:49Z</time>
      </trkpt>
      <trkpt lat="43.14476" lon="2.3242">
        <ele>139.53</ele>
        <time>2013-08-16T10:15:56Z</time>
      </trkpt>
      <trkpt lat="43.14542" lon="2.32391">
        <ele>141.45</ele>
        <time>2013-08-16T10:16:12Z</time>
      </trkpt>
      <trkpt lat="43.14607" lon="2.32325">
        <ele>142.41</ele>
        <time>2013-08-16T10:16:29Z</time>
      </trkpt>
      <trkpt lat="43.1465" lon="2.32279">
        <ele>142.89</ele>
        <time>2013-08-16T10:16:39Z</time>
      </trkpt>
      <trkpt lat="43.14655" lon="2.32275">
        <ele>142.89</ele>
        <time>2013-08-16T10:16:40Z</time>
      </trkpt>
      <trkpt lat="43.14678" lon="2.32249">
        <ele>143.85</ele>
        <time>2013-08-16T10:16:46Z</time>
      </trkpt>
      <trkpt lat="43.14683" lon="2.32246">
        <ele>144.34</ele>
        <time>2013-08-16T10:16:47Z</time>
      </trkpt>
      <trkpt lat="43.14687" lon="2.32243">
        <ele>144.34</ele>
        <time>2013-08-16T10:16:48Z</time>
      </trkpt>
      <trkpt lat="43.14691" lon="2.32242">
        <ele>144.82</ele>
        <time>2013-08-16T10:16:49Z</time>
      </trkpt>
      <trkpt lat="43.14695" lon="2.32241">
        <ele>145.3</ele>
        <time>2013-08-16T10:16:50Z</time>
      </trkpt>
      <trkpt lat="43.14703" lon="2.32241">
        <ele>145.78</ele>
        <time>2013-08-16T10:16:52Z</time>
      </trkpt>
      <trkpt lat="43.14745" lon="2.32251">
        <ele>148.18</ele>
        <time>2013-08-16T10:17:03Z</time>
      </trkpt>
      <trkpt lat="43.14753" lon="2.32248">
        <ele>149.14</ele>
        <time>2013-08-16T10:17:05Z</time>
      </trkpt>
      <trkpt lat="43.148" lon="2.32231">
        <ele>148.18</ele>
        <time>2013-08-16T10:17:16Z</time>
      </trkpt>
      <trkpt lat="43.14805" lon="2.32229">
        <ele>148.18</ele>
        <time>2013-08-16T10:17:17Z</time>
      </trkpt>
      <trkpt lat="43.14809" lon="2.32227">
        <ele>148.18</ele>
        <time>2013-08-16T10:17:18Z</time>
      </trkpt>
      <trkpt lat="43.14834" lon="2.32212">
        <ele>148.66</ele>
        <time>2013-08-16T10:17:24Z</time>
      </trkpt>
      <trkpt lat="43.14838" lon="2.32207">
        <ele>148.66</ele>
        <time>2013-08-16T10:17:25Z</time>
      </trkpt>
      <trkpt lat="43.14845" lon="2.32197">
        <ele>148.18</ele>
        <time>2013-08-16T10:17:27Z</time>
      </trkpt>
      <trkpt lat="43.14848" lon="2.32192">
        <ele>148.18</ele>
        <time>2013-08-16T10:17:28Z</time>
      </trkpt>
      <trkpt lat="43.14866" lon="2.32159">
        <ele>147.7</ele>
        <time>2013-08-16T10:17:33Z</time>
      </trkpt>
      <trkpt lat="43.1488" lon="2.3213">
        <ele>147.7</ele>
        <time>2013-08-16T10:17:37Z</time>
      </trkpt>
      <trkpt lat="43.14884" lon="2.32122">
        <ele>147.22</ele>
        <time>2013-08-16T10:17:38Z</time>
      </trkpt>
      <trkpt lat="43.14904" lon="2.32065">
        <ele>144.34</ele>
        <time>2013-08-16T10:17:45Z</time>
      </trkpt>
      <trkpt lat="43.14908" lon="2.32058">
        <ele>143.85</ele>
        <time>2013-08-16T10:17:46Z</time>
      </trkpt>
      <trkpt lat="43.14912" lon="2.32052">
        <ele>143.85</ele>
        <time>2013-08-16T10:17:47Z</time>
      </trkpt>
      <trkpt lat="43.14917" lon="2.32047">
        <ele>143.85</ele>
        <time>2013-08-16T10:17:48Z</time>
      </trkpt>
      <trkpt lat="43.14921" lon="2.32042">
        <ele>143.85</ele>
        <time>2013-08-16T10:17:49Z</time>
      </trkpt>
      <trkpt lat="43.14926" lon="2.32038">
        <ele>143.85</ele>
        <time>2013-08-16T10:17:50Z</time>
      </trkpt>
      <trkpt lat="43.14931" lon="2.32035">
        <ele>143.85</ele>
        <time>2013-08-16T10:17:51Z</time>
      </trkpt>
      <trkpt lat="43.14936" lon="2.32032">
        <ele>144.34</ele>
        <time>2013-08-16T10:17:52Z</time>
      </trkpt>
      <trkpt lat="43.14942" lon="2.32029">
        <ele>144.34</ele>
        <time>2013-08-16T10:17:53Z</time>
      </trkpt>
      <trkpt lat="43.14947" lon="2.32027">
        <ele>144.34</ele>
        <time>2013-08-16T10:17:54Z</time>
      </trkpt>
      <trkpt lat="43.15019" lon="2.32025">
        <ele>141.93</ele>
        <time>2013-08-16T10:18:08Z</time>
      </trkpt>
      <trkpt lat="43.15119" lon="2.32043">
        <ele>139.05</ele>
        <time>2013-08-16T10:18:28Z</time>
      </trkpt>
      <trkpt lat="43.15199" lon="2.32038">
        <ele>136.16</ele>
        <time>2013-08-16T10:18:45Z</time>
      </trkpt>
      <trkpt lat="43.15288" lon="2.32006">
        <ele>134.24</ele>
        <time>2013-08-16T10:19:04Z</time>
      </trkpt>
      <trkpt lat="43.15367" lon="2.31958">
        <ele>134.24</ele>
        <time>2013-08-16T10:19:21Z</time>
      </trkpt>
      <trkpt lat="43.15438" lon="2.3189">
        <ele>135.2</ele>
        <time>2013-08-16T10:19:39Z</time>
      </trkpt>
      <trkpt lat="43.15494" lon="2.31861">
        <ele>135.68</ele>
        <time>2013-08-16T10:19:53Z</time>
      </trkpt>
      <trkpt lat="43.15498" lon="2.31856">
        <ele>135.68</ele>
        <time>2013-08-16T10:19:55Z</time>
      </trkpt>
      <trkpt lat="43.15499" lon="2.31852">
        <ele>135.2</ele>
        <time>2013-08-16T10:19:56Z</time>
      </trkpt>
      <trkpt lat="43.15498" lon="2.31847">
        <ele>135.2</ele>
        <time>2013-08-16T10:19:57Z</time>
      </trkpt>
      <trkpt lat="43.15495" lon="2.31836">
        <ele>134.72</ele>
        <time>2013-08-16T10:19:59Z</time>
      </trkpt>
      <trkpt lat="43.15495" lon="2.31829">
        <ele>134.72</ele>
        <time>2013-08-16T10:20:00Z</time>
      </trkpt>
      <trkpt lat="43.15496" lon="2.31822">
        <ele>134.24</ele>
        <time>2013-08-16T10:20:01Z</time>
      </trkpt>
      <trkpt lat="43.15499" lon="2.31815">
        <ele>134.24</ele>
        <time>2013-08-16T10:20:02Z</time>
      </trkpt>
      <trkpt lat="43.15502" lon="2.31809">
        <ele>133.76</ele>
        <time>2013-08-16T10:20:03Z</time>
      </trkpt>
      <trkpt lat="43.15507" lon="2.31805">
        <ele>133.76</ele>
        <time>2013-08-16T10:20:04Z</time>
      </trkpt>
      <trkpt lat="43.15511" lon="2.31802">
        <ele>133.76</ele>
        <time>2013-08-16T10:20:05Z</time>
      </trkpt>
      <trkpt lat="43.15515" lon="2.31801">
        <ele>134.24</ele>
        <time>2013-08-16T10:20:06Z</time>
      </trkpt>
      <trkpt lat="43.15519" lon="2.318">
        <ele>134.24</ele>
        <time>2013-08-16T10:20:07Z</time>
      </trkpt>
      <trkpt lat="43.15524" lon="2.31799">
        <ele>134.72</ele>
        <time>2013-08-16T10:20:08Z</time>
      </trkpt>
      <trkpt lat="43.15556" lon="2.31786">
        <ele>135.68</ele>
        <time>2013-08-16T10:20:17Z</time>
      </trkpt>
      <trkpt lat="43.15559" lon="2.31781">
        <ele>135.68</ele>
        <time>2013-08-16T10:20:18Z</time>
      </trkpt>
      <trkpt lat="43.15561" lon="2.31776">
        <ele>135.68</ele>
        <time>2013-08-16T10:20:19Z</time>
      </trkpt>
      <trkpt lat="43.15563" lon="2.3177">
        <ele>135.68</ele>
        <time>2013-08-16T10:20:20Z</time>
      </trkpt>
      <trkpt lat="43.15565" lon="2.31764">
        <ele>135.68</ele>
        <time>2013-08-16T10:20:21Z</time>
      </trkpt>
      <trkpt lat="43.15569" lon="2.31745">
        <ele>135.2</ele>
        <time>2013-08-16T10:20:24Z</time>
      </trkpt>
      <trkpt lat="43.15571" lon="2.31738">
        <ele>134.72</ele>
        <time>2013-08-16T10:20:25Z</time>
      </trkpt>
      <trkpt lat="43.15597" lon="2.31629">
        <ele>131.84</ele>
        <time>2013-08-16T10:20:38Z</time>
      </trkpt>
      <trkpt lat="43.15618" lon="2.31504">
        <ele>130.4</ele>
        <time>2013-08-16T10:20:53Z</time>
      </trkpt>
      <trkpt lat="43.15633" lon="2.31385">
        <ele>129.43</ele>
        <time>2013-08-16T10:21:09Z</time>
      </trkpt>
      <trkpt lat="43.15669" lon="2.31258">
        <ele>127.51</ele>
        <time>2013-08-16T10:21:26Z</time>
      </trkpt>
      <trkpt lat="43.15706" lon="2.31149">
        <ele>125.59</ele>
        <time>2013-08-16T10:21:40Z</time>
      </trkpt>
      <trkpt lat="43.15729" lon="2.31102">
        <ele>125.59</ele>
        <time>2013-08-16T10:21:46Z</time>
      </trkpt>
      <trkpt lat="43.15734" lon="2.31096">
        <ele>125.59</ele>
        <time>2013-08-16T10:21:47Z</time>
      </trkpt>
      <trkpt lat="43.15798" lon="2.31015">
        <ele>128.95</ele>
        <time>2013-08-16T10:22:02Z</time>
      </trkpt>
      <trkpt lat="43.15844" lon="2.3098">
        <ele>132.32</ele>
        <time>2013-08-16T10:22:16Z</time>
      </trkpt>
      <trkpt lat="43.15891" lon="2.30965">
        <ele>134.24</ele>
        <time>2013-08-16T10:22:30Z</time>
      </trkpt>
      <trkpt lat="43.15908" lon="2.30962">
        <ele>134.72</ele>
        <time>2013-08-16T10:22:41Z</time>
      </trkpt>
      <trkpt lat="43.15937" lon="2.30963">
        <ele>135.68</ele>
        <time>2013-08-16T10:22:52Z</time>
      </trkpt>
      <trkpt lat="43.15972" lon="2.30963">
        <ele>135.68</ele>
        <time>2013-08-16T10:23:05Z</time>
      </trkpt>
      <trkpt lat="43.16003" lon="2.30967">
        <ele>137.13</ele>
        <time>2013-08-16T10:23:17Z</time>
      </trkpt>
      <trkpt lat="43.16033" lon="2.30968">
        <ele>140.97</ele>
        <time>2013-08-16T10:23:30Z</time>
      </trkpt>
      <trkpt lat="43.16082" lon="2.3097">
        <ele>140.97</ele>
        <time>2013-08-16T10:23:46Z</time>
      </trkpt>
      <trkpt lat="43.16139" lon="2.3097">
        <ele>140.01</ele>
        <time>2013-08-16T10:23:59Z</time>
      </trkpt>
      <trkpt lat="43.16154" lon="2.30967">
        <ele>139.53</ele>
        <time>2013-08-16T10:24:02Z</time>
      </trkpt>
      <trkpt lat="43.16159" lon="2.30965">
        <ele>139.05</ele>
        <time>2013-08-16T10:24:03Z</time>
      </trkpt>
      <trkpt lat="43.16164" lon="2.30964">
        <ele>138.57</ele>
        <time>2013-08-16T10:24:04Z</time>
      </trkpt>
      <trkpt lat="43.16243" lon="2.30927">
        <ele>135.68</ele>
        <time>2013-08-16T10:24:20Z</time>
      </trkpt>
      <trkpt lat="43.16324" lon="2.3089">
        <ele>132.32</ele>
        <time>2013-08-16T10:24:36Z</time>
      </trkpt>
      <trkpt lat="43.16385" lon="2.30865">
        <ele>132.8</ele>
        <time>2013-08-16T10:24:51Z</time>
      </trkpt>
      <trkpt lat="43.16404" lon="2.30863">
        <ele>132.32</ele>
        <time>2013-08-16T10:24:58Z</time>
      </trkpt>
      <trkpt lat="43.16405" lon="2.30862">
        <ele>132.32</ele>
        <time>2013-08-16T10:24:59Z</time>
      </trkpt>
      <trkpt lat="43.16408" lon="2.30859">
        <ele>130.4</ele>
        <time>2013-08-16T10:25:13Z</time>
      </trkpt>
      <trkpt lat="43.16407" lon="2.30858">
        <ele>131.36</ele>
        <time>2013-08-16T10:25:31Z</time>
      </trkpt>
      <trkpt lat="43.16407" lon="2.30857">
        <ele>131.84</ele>
        <time>2013-08-16T10:25:47Z</time>
      </trkpt>
      <trkpt lat="43.16405" lon="2.30852">
        <ele>132.32</ele>
        <time>2013-08-16T10:26:14Z</time>
      </trkpt>
      <trkpt lat="43.16407" lon="2.30851">
        <ele>127.51</ele>
        <time>2013-08-16T10:26:52Z</time>
      </trkpt>
      <trkpt lat="43.16411" lon="2.30854">
        <ele>126.07</ele>
        <time>2013-08-16T10:27:22Z</time>
      </trkpt>
      <trkpt lat="43.16412" lon="2.30854">
        <ele>126.55</ele>
        <time>2013-08-16T10:27:51Z</time>
      </trkpt>
      <trkpt lat="43.16411" lon="2.30855">
        <ele>128.47</ele>
        <time>2013-08-16T10:28:19Z</time>
      </trkpt>
      <trkpt lat="43.16409" lon="2.30855">
        <ele>126.07</ele>
        <time>2013-08-16T10:28:48Z</time>
      </trkpt>
      <trkpt lat="43.16409" lon="2.30857">
        <ele>129.43</ele>
        <time>2013-08-16T10:29:11Z</time>
      </trkpt>
      <trkpt lat="43.16412" lon="2.30855">
        <ele>129.43</ele>
        <time>2013-08-16T10:29:18Z</time>
      </trkpt>
      <trkpt lat="43.16413" lon="2.30854">
        <ele>129.43</ele>
        <time>2013-08-16T10:29:19Z</time>
      </trkpt>
      <trkpt lat="43.16414" lon="2.30853">
        <ele>129.43</ele>
        <time>2013-08-16T10:29:20Z</time>
      </trkpt>
      <trkpt lat="43.16416" lon="2.30851">
        <ele>129.43</ele>
        <time>2013-08-16T10:29:21Z</time>
      </trkpt>
      <trkpt lat="43.16419" lon="2.3085">
        <ele>129.92</ele>
        <time>2013-08-16T10:29:22Z</time>
      </trkpt>
      <trkpt lat="43.16422" lon="2.30849">
        <ele>129.92</ele>
        <time>2013-08-16T10:29:23Z</time>
      </trkpt>
      <trkpt lat="43.16467" lon="2.30831">
        <ele>130.4</ele>
        <time>2013-08-16T10:29:35Z</time>
      </trkpt>
      <trkpt lat="43.16518" lon="2.30817">
        <ele>128.95</ele>
        <time>2013-08-16T10:29:45Z</time>
      </trkpt>
      <trkpt lat="43.16524" lon="2.30817">
        <ele>128.95</ele>
        <time>2013-08-16T10:29:46Z</time>
      </trkpt>
      <trkpt lat="43.16534" lon="2.3082">
        <ele>128.47</ele>
        <time>2013-08-16T10:29:48Z</time>
      </trkpt>
      <trkpt lat="43.16605" lon="2.30842">
        <ele>128.47</ele>
        <time>2013-08-16T10:30:04Z</time>
      </trkpt>
      <trkpt lat="43.16656" lon="2.30868">
        <ele>128.47</ele>
        <time>2013-08-16T10:30:19Z</time>
      </trkpt>
      <trkpt lat="43.16706" lon="2.30901">
        <ele>128.95</ele>
        <time>2013-08-16T10:30:35Z</time>
      </trkpt>
      <trkpt lat="43.16771" lon="2.3092">
        <ele>127.51</ele>
        <time>2013-08-16T10:30:52Z</time>
      </trkpt>
      <trkpt lat="43.16787" lon="2.30925">
        <ele>127.03</ele>
        <time>2013-08-16T10:30:55Z</time>
      </trkpt>
      <trkpt lat="43.16793" lon="2.30927">
        <ele>127.03</ele>
        <time>2013-08-16T10:30:56Z</time>
      </trkpt>
      <trkpt lat="43.16804" lon="2.30934">
        <ele>127.51</ele>
        <time>2013-08-16T10:30:58Z</time>
      </trkpt>
      <trkpt lat="43.16809" lon="2.30937">
        <ele>127.51</ele>
        <time>2013-08-16T10:30:59Z</time>
      </trkpt>
      <trkpt lat="43.16815" lon="2.30942">
        <ele>127.51</ele>
        <time>2013-08-16T10:31:00Z</time>
      </trkpt>
      <trkpt lat="43.1682" lon="2.30946">
        <ele>127.03</ele>
        <time>2013-08-16T10:31:01Z</time>
      </trkpt>
      <trkpt lat="43.16824" lon="2.30952">
        <ele>127.03</ele>
        <time>2013-08-16T10:31:02Z</time>
      </trkpt>
      <trkpt lat="43.16829" lon="2.30957">
        <ele>127.03</ele>
        <time>2013-08-16T10:31:03Z</time>
      </trkpt>
      <trkpt lat="43.16842" lon="2.30972">
        <ele>127.51</ele>
        <time>2013-08-16T10:31:06Z</time>
      </trkpt>
      <trkpt lat="43.16847" lon="2.30976">
        <ele>127.51</ele>
        <time>2013-08-16T10:31:07Z</time>
      </trkpt>
      <trkpt lat="43.16852" lon="2.30979">
        <ele>127.51</ele>
        <time>2013-08-16T10:31:08Z</time>
      </trkpt>
      <trkpt lat="43.16857" lon="2.30982">
        <ele>127.51</ele>
        <time>2013-08-16T10:31:09Z</time>
      </trkpt>
      <trkpt lat="43.16862" lon="2.30984">
        <ele>127.51</ele>
        <time>2013-08-16T10:31:10Z</time>
      </trkpt>
      <trkpt lat="43.16867" lon="2.30985">
        <ele>127.99</ele>
        <time>2013-08-16T10:31:11Z</time>
      </trkpt>
      <trkpt lat="43.16872" lon="2.30986">
        <ele>127.99</ele>
        <time>2013-08-16T10:31:12Z</time>
      </trkpt>
      <trkpt lat="43.16921" lon="2.30981">
        <ele>127.51</ele>
        <time>2013-08-16T10:31:21Z</time>
      </trkpt>
      <trkpt lat="43.16995" lon="2.30998">
        <ele>127.51</ele>
        <time>2013-08-16T10:31:35Z</time>
      </trkpt>
      <trkpt lat="43.16999" lon="2.30999">
        <ele>127.03</ele>
        <time>2013-08-16T10:31:36Z</time>
      </trkpt>
      <trkpt lat="43.17003" lon="2.31001">
        <ele>127.03</ele>
        <time>2013-08-16T10:31:37Z</time>
      </trkpt>
      <trkpt lat="43.17007" lon="2.31002">
        <ele>127.03</ele>
        <time>2013-08-16T10:31:38Z</time>
      </trkpt>
      <trkpt lat="43.17012" lon="2.31002">
        <ele>127.03</ele>
        <time>2013-08-16T10:31:39Z</time>
      </trkpt>
      <trkpt lat="43.17016" lon="2.31002">
        <ele>126.55</ele>
        <time>2013-08-16T10:31:40Z</time>
      </trkpt>
      <trkpt lat="43.17021" lon="2.31001">
        <ele>126.55</ele>
        <time>2013-08-16T10:31:41Z</time>
      </trkpt>
      <trkpt lat="43.17059" lon="2.30995">
        <ele>126.55</ele>
        <time>2013-08-16T10:31:48Z</time>
      </trkpt>
      <trkpt lat="43.17065" lon="2.30996">
        <ele>126.55</ele>
        <time>2013-08-16T10:31:49Z</time>
      </trkpt>
      <trkpt lat="43.17082" lon="2.31">
        <ele>126.07</ele>
        <time>2013-08-16T10:31:52Z</time>
      </trkpt>
      <trkpt lat="43.17087" lon="2.31004">
        <ele>125.59</ele>
        <time>2013-08-16T10:31:53Z</time>
      </trkpt>
      <trkpt lat="43.17092" lon="2.31008">
        <ele>125.59</ele>
        <time>2013-08-16T10:31:54Z</time>
      </trkpt>
      <trkpt lat="43.17126" lon="2.31046">
        <ele>125.11</ele>
        <time>2013-08-16T10:32:03Z</time>
      </trkpt>
      <trkpt lat="43.17148" lon="2.31116">
        <ele>124.63</ele>
        <time>2013-08-16T10:32:18Z</time>
      </trkpt>
      <trkpt lat="43.17177" lon="2.31168">
        <ele>126.07</ele>
        <time>2013-08-16T10:32:32Z</time>
      </trkpt>
      <trkpt lat="43.17238" lon="2.3122">
        <ele>127.03</ele>
        <time>2013-08-16T10:32:52Z</time>
      </trkpt>
      <trkpt lat="43.17302" lon="2.31245">
        <ele>127.99</ele>
        <time>2013-08-16T10:33:09Z</time>
      </trkpt>
      <trkpt lat="43.17354" lon="2.31259">
        <ele>128.47</ele>
        <time>2013-08-16T10:33:20Z</time>
      </trkpt>
      <trkpt lat="43.1743" lon="2.31316">
        <ele>130.88</ele>
        <time>2013-08-16T10:33:39Z</time>
      </trkpt>
      <trkpt lat="43.1749" lon="2.31356">
        <ele>131.36</ele>
        <time>2013-08-16T10:33:55Z</time>
      </trkpt>
      <trkpt lat="43.17536" lon="2.31381">
        <ele>132.32</ele>
        <time>2013-08-16T10:34:11Z</time>
      </trkpt>
      <trkpt lat="43.17565" lon="2.31376">
        <ele>134.24</ele>
        <time>2013-08-16T10:34:26Z</time>
      </trkpt>
      <trkpt lat="43.17584" lon="2.31372">
        <ele>136.16</ele>
        <time>2013-08-16T10:34:38Z</time>
      </trkpt>
      <trkpt lat="43.17609" lon="2.31384">
        <ele>138.09</ele>
        <time>2013-08-16T10:34:50Z</time>
      </trkpt>
      <trkpt lat="43.17647" lon="2.31425">
        <ele>139.53</ele>
        <time>2013-08-16T10:35:09Z</time>
      </trkpt>
      <trkpt lat="43.17657" lon="2.31462">
        <ele>138.09</ele>
        <time>2013-08-16T10:35:22Z</time>
      </trkpt>
      <trkpt lat="43.17655" lon="2.31511">
        <ele>138.09</ele>
        <time>2013-08-16T10:35:40Z</time>
      </trkpt>
      <trkpt lat="43.17653" lon="2.31535">
        <ele>138.09</ele>
        <time>2013-08-16T10:35:53Z</time>
      </trkpt>
      <trkpt lat="43.17652" lon="2.3157">
        <ele>137.61</ele>
        <time>2013-08-16T10:36:10Z</time>
      </trkpt>
      <trkpt lat="43.1765" lon="2.31603">
        <ele>138.57</ele>
        <time>2013-08-16T10:36:20Z</time>
      </trkpt>
      <trkpt lat="43.17649" lon="2.31609">
        <ele>138.57</ele>
        <time>2013-08-16T10:36:21Z</time>
      </trkpt>
      <trkpt lat="43.17641" lon="2.31673">
        <ele>139.53</ele>
        <time>2013-08-16T10:36:29Z</time>
      </trkpt>
      <trkpt lat="43.17623" lon="2.31758">
        <ele>140.97</ele>
        <time>2013-08-16T10:36:41Z</time>
      </trkpt>
      <trkpt lat="43.17616" lon="2.31806">
        <ele>140.49</ele>
        <time>2013-08-16T10:36:54Z</time>
      </trkpt>
      <trkpt lat="43.17615" lon="2.31813">
        <ele>140.49</ele>
        <time>2013-08-16T10:36:57Z</time>
      </trkpt>
      <trkpt lat="43.17616" lon="2.31814">
        <ele>140.49</ele>
        <time>2013-08-16T10:36:58Z</time>
      </trkpt>
      <trkpt lat="43.17617" lon="2.31815">
        <ele>140.49</ele>
        <time>2013-08-16T10:36:59Z</time>
      </trkpt>
      <trkpt lat="43.17618" lon="2.31815">
        <ele>140.49</ele>
        <time>2013-08-16T10:37:00Z</time>
      </trkpt>
      <trkpt lat="43.17618" lon="2.31814">
        <ele>140.01</ele>
        <time>2013-08-16T10:37:01Z</time>
      </trkpt>
      <trkpt lat="43.17619" lon="2.31812">
        <ele>140.01</ele>
        <time>2013-08-16T10:37:02Z</time>
      </trkpt>
      <trkpt lat="43.17619" lon="2.3181">
        <ele>140.49</ele>
        <time>2013-08-16T10:37:03Z</time>
      </trkpt>
      <trkpt lat="43.17619" lon="2.31808">
        <ele>140.01</ele>
        <time>2013-08-16T10:37:04Z</time>
      </trkpt>
      <trkpt lat="43.17618" lon="2.31807">
        <ele>140.01</ele>
        <time>2013-08-16T10:37:05Z</time>
      </trkpt>
      <trkpt lat="43.17615" lon="2.31817">
        <ele>140.01</ele>
        <time>2013-08-16T10:37:10Z</time>
      </trkpt>
      <trkpt lat="43.17615" lon="2.31819">
        <ele>140.01</ele>
        <time>2013-08-16T10:37:11Z</time>
      </trkpt>
      <trkpt lat="43.17615" lon="2.31822">
        <ele>140.01</ele>
        <time>2013-08-16T10:37:12Z</time>
      </trkpt>
      <trkpt lat="43.17614" lon="2.31825">
        <ele>140.01</ele>
        <time>2013-08-16T10:37:13Z</time>
      </trkpt>
      <trkpt lat="43.1761" lon="2.31866">
        <ele>140.49</ele>
        <time>2013-08-16T10:37:28Z</time>
      </trkpt>
      <trkpt lat="43.17602" lon="2.31905">
        <ele>140.49</ele>
        <time>2013-08-16T10:37:43Z</time>
      </trkpt>
      <trkpt lat="43.17601" lon="2.31907">
        <ele>140.49</ele>
        <time>2013-08-16T10:37:44Z</time>
      </trkpt>
      <trkpt lat="43.176" lon="2.3191">
        <ele>140.49</ele>
        <time>2013-08-16T10:37:45Z</time>
      </trkpt>
      <trkpt lat="43.176" lon="2.31913">
        <ele>140.49</ele>
        <time>2013-08-16T10:37:46Z</time>
      </trkpt>
      <trkpt lat="43.176" lon="2.31915">
        <ele>140.97</ele>
        <time>2013-08-16T10:37:47Z</time>
      </trkpt>
      <trkpt lat="43.17599" lon="2.31917">
        <ele>140.97</ele>
        <time>2013-08-16T10:37:48Z</time>
      </trkpt>
      <trkpt lat="43.17599" lon="2.31919">
        <ele>140.97</ele>
        <time>2013-08-16T10:37:49Z</time>
      </trkpt>
      <trkpt lat="43.17598" lon="2.31921">
        <ele>140.97</ele>
        <time>2013-08-16T10:37:50Z</time>
      </trkpt>
      <trkpt lat="43.17597" lon="2.31922">
        <ele>140.49</ele>
        <time>2013-08-16T10:37:51Z</time>
      </trkpt>
      <trkpt lat="43.17596" lon="2.31925">
        <ele>139.05</ele>
        <time>2013-08-16T10:38:04Z</time>
      </trkpt>
      <trkpt lat="43.17595" lon="2.31932">
        <ele>139.53</ele>
        <time>2013-08-16T10:38:08Z</time>
      </trkpt>
      <trkpt lat="43.17595" lon="2.31935">
        <ele>139.53</ele>
        <time>2013-08-16T10:38:09Z</time>
      </trkpt>
      <trkpt lat="43.17594" lon="2.31937">
        <ele>139.53</ele>
        <time>2013-08-16T10:38:10Z</time>
      </trkpt>
      <trkpt lat="43.17593" lon="2.3194">
        <ele>140.01</ele>
        <time>2013-08-16T10:38:11Z</time>
      </trkpt>
      <trkpt lat="43.17593" lon="2.31942">
        <ele>139.53</ele>
        <time>2013-08-16T10:38:12Z</time>
      </trkpt>
      <trkpt lat="43.17592" lon="2.31945">
        <ele>139.53</ele>
        <time>2013-08-16T10:38:13Z</time>
      </trkpt>
      <trkpt lat="43.17573" lon="2.31998">
        <ele>140.01</ele>
        <time>2013-08-16T10:38:22Z</time>
      </trkpt>
      <trkpt lat="43.17564" lon="2.32019">
        <ele>140.01</ele>
        <time>2013-08-16T10:38:25Z</time>
      </trkpt>
      <trkpt lat="43.17523" lon="2.32114">
        <ele>140.97</ele>
        <time>2013-08-16T10:38:38Z</time>
      </trkpt>
      <trkpt lat="43.17513" lon="2.32144">
        <ele>140.97</ele>
        <time>2013-08-16T10:38:43Z</time>
      </trkpt>
      <trkpt lat="43.17513" lon="2.32149">
        <ele>140.97</ele>
        <time>2013-08-16T10:38:44Z</time>
      </trkpt>
      <trkpt lat="43.17512" lon="2.32155">
        <ele>140.97</ele>
        <time>2013-08-16T10:38:45Z</time>
      </trkpt>
      <trkpt lat="43.17512" lon="2.3216">
        <ele>140.49</ele>
        <time>2013-08-16T10:38:46Z</time>
      </trkpt>
      <trkpt lat="43.17511" lon="2.32165">
        <ele>140.49</ele>
        <time>2013-08-16T10:38:47Z</time>
      </trkpt>
      <trkpt lat="43.17511" lon="2.3217">
        <ele>140.49</ele>
        <time>2013-08-16T10:38:48Z</time>
      </trkpt>
      <trkpt lat="43.1751" lon="2.32175">
        <ele>140.49</ele>
        <time>2013-08-16T10:38:49Z</time>
      </trkpt>
      <trkpt lat="43.1751" lon="2.3218">
        <ele>140.01</ele>
        <time>2013-08-16T10:38:50Z</time>
      </trkpt>
      <trkpt lat="43.17509" lon="2.32206">
        <ele>139.53</ele>
        <time>2013-08-16T10:38:55Z</time>
      </trkpt>
      <trkpt lat="43.17508" lon="2.32212">
        <ele>139.53</ele>
        <time>2013-08-16T10:38:56Z</time>
      </trkpt>
      <trkpt lat="43.17507" lon="2.32237">
        <ele>139.05</ele>
        <time>2013-08-16T10:39:00Z</time>
      </trkpt>
      <trkpt lat="43.17505" lon="2.32256">
        <ele>138.57</ele>
        <time>2013-08-16T10:39:03Z</time>
      </trkpt>
      <trkpt lat="43.17505" lon="2.32291">
        <ele>137.61</ele>
        <time>2013-08-16T10:39:08Z</time>
      </trkpt>
      <trkpt lat="43.17506" lon="2.32298">
        <ele>137.13</ele>
        <time>2013-08-16T10:39:09Z</time>
      </trkpt>
      <trkpt lat="43.17508" lon="2.32305">
        <ele>137.13</ele>
        <time>2013-08-16T10:39:10Z</time>
      </trkpt>
      <trkpt lat="43.1751" lon="2.32311">
        <ele>136.64</ele>
        <time>2013-08-16T10:39:11Z</time>
      </trkpt>
      <trkpt lat="43.17513" lon="2.32318">
        <ele>136.64</ele>
        <time>2013-08-16T10:39:12Z</time>
      </trkpt>
      <trkpt lat="43.17517" lon="2.32324">
        <ele>136.16</ele>
        <time>2013-08-16T10:39:13Z</time>
      </trkpt>
      <trkpt lat="43.1752" lon="2.32329">
        <ele>135.68</ele>
        <time>2013-08-16T10:39:14Z</time>
      </trkpt>
      <trkpt lat="43.17524" lon="2.32334">
        <ele>135.68</ele>
        <time>2013-08-16T10:39:15Z</time>
      </trkpt>
      <trkpt lat="43.17528" lon="2.32338">
        <ele>135.2</ele>
        <time>2013-08-16T10:39:16Z</time>
      </trkpt>
      <trkpt lat="43.17532" lon="2.32341">
        <ele>135.2</ele>
        <time>2013-08-16T10:39:17Z</time>
      </trkpt>
      <trkpt lat="43.17569" lon="2.32374">
        <ele>132.32</ele>
        <time>2013-08-16T10:39:30Z</time>
      </trkpt>
      <trkpt lat="43.17572" lon="2.32377">
        <ele>132.32</ele>
        <time>2013-08-16T10:39:43Z</time>
      </trkpt>
      <trkpt lat="43.17574" lon="2.32378">
        <ele>132.32</ele>
        <time>2013-08-16T10:39:44Z</time>
      </trkpt>
      <trkpt lat="43.17575" lon="2.3238">
        <ele>132.32</ele>
        <time>2013-08-16T10:39:45Z</time>
      </trkpt>
      <trkpt lat="43.17578" lon="2.32382">
        <ele>132.32</ele>
        <time>2013-08-16T10:39:46Z</time>
      </trkpt>
      <trkpt lat="43.17581" lon="2.32384">
        <ele>132.32</ele>
        <time>2013-08-16T10:39:47Z</time>
      </trkpt>
      <trkpt lat="43.17584" lon="2.32387">
        <ele>132.32</ele>
        <time>2013-08-16T10:39:48Z</time>
      </trkpt>
      <trkpt lat="43.17588" lon="2.32388">
        <ele>132.32</ele>
        <time>2013-08-16T10:39:49Z</time>
      </trkpt>
      <trkpt lat="43.17592" lon="2.3239">
        <ele>132.32</ele>
        <time>2013-08-16T10:39:50Z</time>
      </trkpt>
      <trkpt lat="43.17596" lon="2.32391">
        <ele>132.32</ele>
        <time>2013-08-16T10:39:51Z</time>
      </trkpt>
      <trkpt lat="43.17601" lon="2.32392">
        <ele>132.32</ele>
        <time>2013-08-16T10:39:52Z</time>
      </trkpt>
      <trkpt lat="43.17605" lon="2.32394">
        <ele>132.32</ele>
        <time>2013-08-16T10:39:53Z</time>
      </trkpt>
      <trkpt lat="43.1761" lon="2.32395">
        <ele>132.32</ele>
        <time>2013-08-16T10:39:54Z</time>
      </trkpt>
      <trkpt lat="43.17615" lon="2.32396">
        <ele>132.32</ele>
        <time>2013-08-16T10:39:55Z</time>
      </trkpt>
      <trkpt lat="43.1762" lon="2.32398">
        <ele>132.32</ele>
        <time>2013-08-16T10:39:56Z</time>
      </trkpt>
      <trkpt lat="43.17725" lon="2.32425">
        <ele>128.95</ele>
        <time>2013-08-16T10:40:14Z</time>
      </trkpt>
      <trkpt lat="43.17802" lon="2.32446">
        <ele>127.03</ele>
        <time>2013-08-16T10:40:26Z</time>
      </trkpt>
      <trkpt lat="43.17808" lon="2.3245">
        <ele>126.55</ele>
        <time>2013-08-16T10:40:27Z</time>
      </trkpt>
      <trkpt lat="43.17813" lon="2.32455">
        <ele>126.07</ele>
        <time>2013-08-16T10:40:28Z</time>
      </trkpt>
      <trkpt lat="43.17818" lon="2.32462">
        <ele>125.59</ele>
        <time>2013-08-16T10:40:29Z</time>
      </trkpt>
      <trkpt lat="43.17823" lon="2.32469">
        <ele>125.11</ele>
        <time>2013-08-16T10:40:30Z</time>
      </trkpt>
      <trkpt lat="43.17826" lon="2.32477">
        <ele>125.11</ele>
        <time>2013-08-16T10:40:31Z</time>
      </trkpt>
      <trkpt lat="43.17829" lon="2.32485">
        <ele>124.63</ele>
        <time>2013-08-16T10:40:32Z</time>
      </trkpt>
      <trkpt lat="43.17843" lon="2.32522">
        <ele>124.15</ele>
        <time>2013-08-16T10:40:37Z</time>
      </trkpt>
      <trkpt lat="43.17848" lon="2.32528">
        <ele>123.67</ele>
        <time>2013-08-16T10:40:38Z</time>
      </trkpt>
      <trkpt lat="43.17852" lon="2.32533">
        <ele>123.67</ele>
        <time>2013-08-16T10:40:39Z</time>
      </trkpt>
      <trkpt lat="43.17857" lon="2.32538">
        <ele>123.67</ele>
        <time>2013-08-16T10:40:40Z</time>
      </trkpt>
      <trkpt lat="43.17862" lon="2.32542">
        <ele>123.67</ele>
        <time>2013-08-16T10:40:41Z</time>
      </trkpt>
      <trkpt lat="43.17867" lon="2.32545">
        <ele>123.67</ele>
        <time>2013-08-16T10:40:42Z</time>
      </trkpt>
      <trkpt lat="43.17873" lon="2.32548">
        <ele>123.67</ele>
        <time>2013-08-16T10:40:43Z</time>
      </trkpt>
      <trkpt lat="43.17976" lon="2.32604">
        <ele>124.63</ele>
        <time>2013-08-16T10:41:00Z</time>
      </trkpt>
      <trkpt lat="43.1807" lon="2.32654">
        <ele>123.19</ele>
        <time>2013-08-16T10:41:16Z</time>
      </trkpt>
      <trkpt lat="43.1817" lon="2.32709">
        <ele>120.3</ele>
        <time>2013-08-16T10:41:35Z</time>
      </trkpt>
      <trkpt lat="43.1826" lon="2.32759">
        <ele>118.38</ele>
        <time>2013-08-16T10:41:55Z</time>
      </trkpt>
      <trkpt lat="43.18348" lon="2.32806">
        <ele>117.42</ele>
        <time>2013-08-16T10:42:15Z</time>
      </trkpt>
      <trkpt lat="43.18428" lon="2.32851">
        <ele>117.42</ele>
        <time>2013-08-16T10:42:35Z</time>
      </trkpt>
      <trkpt lat="43.18506" lon="2.32902">
        <ele>117.42</ele>
        <time>2013-08-16T10:42:56Z</time>
      </trkpt>
      <trkpt lat="43.18581" lon="2.3296">
        <ele>117.9</ele>
        <time>2013-08-16T10:43:19Z</time>
      </trkpt>
      <trkpt lat="43.18626" lon="2.33">
        <ele>118.38</ele>
        <time>2013-08-16T10:43:35Z</time>
      </trkpt>
      <trkpt lat="43.18681" lon="2.33056">
        <ele>117.9</ele>
        <time>2013-08-16T10:43:53Z</time>
      </trkpt>
      <trkpt lat="43.18706" lon="2.33083">
        <ele>117.9</ele>
        <time>2013-08-16T10:44:00Z</time>
      </trkpt>
      <trkpt lat="43.1871" lon="2.33087">
        <ele>117.9</ele>
        <time>2013-08-16T10:44:01Z</time>
      </trkpt>
      <trkpt lat="43.18777" lon="2.33141">
        <ele>117.42</ele>
        <time>2013-08-16T10:44:18Z</time>
      </trkpt>
      <trkpt lat="43.18812" lon="2.33165">
        <ele>119.34</ele>
        <time>2013-08-16T10:44:27Z</time>
      </trkpt>
      <trkpt lat="43.18875" lon="2.33212">
        <ele>118.86</ele>
        <time>2013-08-16T10:44:44Z</time>
      </trkpt>
      <trkpt lat="43.18942" lon="2.3324">
        <ele>118.86</ele>
        <time>2013-08-16T10:45:03Z</time>
      </trkpt>
      <trkpt lat="43.19" lon="2.33217">
        <ele>119.82</ele>
        <time>2013-08-16T10:45:18Z</time>
      </trkpt>
      <trkpt lat="43.19061" lon="2.33183">
        <ele>120.78</ele>
        <time>2013-08-16T10:45:34Z</time>
      </trkpt>
      <trkpt lat="43.19069" lon="2.33182">
        <ele>120.78</ele>
        <time>2013-08-16T10:45:36Z</time>
      </trkpt>
      <trkpt lat="43.19073" lon="2.33181">
        <ele>120.78</ele>
        <time>2013-08-16T10:45:37Z</time>
      </trkpt>
      <trkpt lat="43.19133" lon="2.33205">
        <ele>122.22</ele>
        <time>2013-08-16T10:45:52Z</time>
      </trkpt>
      <trkpt lat="43.19136" lon="2.33209">
        <ele>122.22</ele>
        <time>2013-08-16T10:45:53Z</time>
      </trkpt>
      <trkpt lat="43.19168" lon="2.33277">
        <ele>121.74</ele>
        <time>2013-08-16T10:46:08Z</time>
      </trkpt>
      <trkpt lat="43.19168" lon="2.33363">
        <ele>121.26</ele>
        <time>2013-08-16T10:46:23Z</time>
      </trkpt>
      <trkpt lat="43.19182" lon="2.33445">
        <ele>121.26</ele>
        <time>2013-08-16T10:46:39Z</time>
      </trkpt>
      <trkpt lat="43.19205" lon="2.33492">
        <ele>121.74</ele>
        <time>2013-08-16T10:46:53Z</time>
      </trkpt>
      <trkpt lat="43.19233" lon="2.33535">
        <ele>122.22</ele>
        <time>2013-08-16T10:47:09Z</time>
      </trkpt>
      <trkpt lat="43.19269" lon="2.33579">
        <ele>120.78</ele>
        <time>2013-08-16T10:47:26Z</time>
      </trkpt>
      <trkpt lat="43.19306" lon="2.33618">
        <ele>122.22</ele>
        <time>2013-08-16T10:47:45Z</time>
      </trkpt>
      <trkpt lat="43.19304" lon="2.33617">
        <ele>122.71</ele>
        <time>2013-08-16T10:48:03Z</time>
      </trkpt>
      <trkpt lat="43.19308" lon="2.33622">
        <ele>123.19</ele>
        <time>2013-08-16T10:48:09Z</time>
      </trkpt>
      <trkpt lat="43.19341" lon="2.33628">
        <ele>124.15</ele>
        <time>2013-08-16T10:48:18Z</time>
      </trkpt>
      <trkpt lat="43.19406" lon="2.33632">
        <ele>127.03</ele>
        <time>2013-08-16T10:48:35Z</time>
      </trkpt>
      <trkpt lat="43.1947" lon="2.33645">
        <ele>127.99</ele>
        <time>2013-08-16T10:48:52Z</time>
      </trkpt>
      <trkpt lat="43.19483" lon="2.33648">
        <ele>127.99</ele>
        <time>2013-08-16T10:48:55Z</time>
      </trkpt>
      <trkpt lat="43.19567" lon="2.33655">
        <ele>125.59</ele>
        <time>2013-08-16T10:49:12Z</time>
      </trkpt>
      <trkpt lat="43.1967" lon="2.33686">
        <ele>121.74</ele>
        <time>2013-08-16T10:49:32Z</time>
      </trkpt>
      <trkpt lat="43.19771" lon="2.33734">
        <ele>119.82</ele>
        <time>2013-08-16T10:49:52Z</time>
      </trkpt>
      <trkpt lat="43.19883" lon="2.33738">
        <ele>118.38</ele>
        <time>2013-08-16T10:50:12Z</time>
      </trkpt>
      <trkpt lat="43.19968" lon="2.33732">
        <ele>116.94</ele>
        <time>2013-08-16T10:50:27Z</time>
      </trkpt>
      <trkpt lat="43.19973" lon="2.33734">
        <ele>116.46</ele>
        <time>2013-08-16T10:50:28Z</time>
      </trkpt>
      <trkpt lat="43.19977" lon="2.33737">
        <ele>116.46</ele>
        <time>2013-08-16T10:50:29Z</time>
      </trkpt>
      <trkpt lat="43.19982" lon="2.3374">
        <ele>116.46</ele>
        <time>2013-08-16T10:50:30Z</time>
      </trkpt>
      <trkpt lat="43.19986" lon="2.33743">
        <ele>116.46</ele>
        <time>2013-08-16T10:50:31Z</time>
      </trkpt>
      <trkpt lat="43.1999" lon="2.33745">
        <ele>116.46</ele>
        <time>2013-08-16T10:50:32Z</time>
      </trkpt>
      <trkpt lat="43.19995" lon="2.33744">
        <ele>115.98</ele>
        <time>2013-08-16T10:50:33Z</time>
      </trkpt>
      <trkpt lat="43.19999" lon="2.33741">
        <ele>115.98</ele>
        <time>2013-08-16T10:50:34Z</time>
      </trkpt>
      <trkpt lat="43.20003" lon="2.33736">
        <ele>115.98</ele>
        <time>2013-08-16T10:50:35Z</time>
      </trkpt>
      <trkpt lat="43.20007" lon="2.33731">
        <ele>115.98</ele>
        <time>2013-08-16T10:50:36Z</time>
      </trkpt>
      <trkpt lat="43.20011" lon="2.33726">
        <ele>115.98</ele>
        <time>2013-08-16T10:50:37Z</time>
      </trkpt>
      <trkpt lat="43.20016" lon="2.33722">
        <ele>115.98</ele>
        <time>2013-08-16T10:50:38Z</time>
      </trkpt>
      <trkpt lat="43.20021" lon="2.33719">
        <ele>115.98</ele>
        <time>2013-08-16T10:50:39Z</time>
      </trkpt>
      <trkpt lat="43.20026" lon="2.33717">
        <ele>115.98</ele>
        <time>2013-08-16T10:50:40Z</time>
      </trkpt>
      <trkpt lat="43.20116" lon="2.33675">
        <ele>115.01</ele>
        <time>2013-08-16T10:50:58Z</time>
      </trkpt>
      <trkpt lat="43.20203" lon="2.33601">
        <ele>115.01</ele>
        <time>2013-08-16T10:51:17Z</time>
      </trkpt>
      <trkpt lat="43.20293" lon="2.33498">
        <ele>115.01</ele>
        <time>2013-08-16T10:51:39Z</time>
      </trkpt>
      <trkpt lat="43.20334" lon="2.3345">
        <ele>116.46</ele>
        <time>2013-08-16T10:51:50Z</time>
      </trkpt>
      <trkpt lat="43.20403" lon="2.33371">
        <ele>116.46</ele>
        <time>2013-08-16T10:52:08Z</time>
      </trkpt>
      <trkpt lat="43.20448" lon="2.33328">
        <ele>115.5</ele>
        <time>2013-08-16T10:52:18Z</time>
      </trkpt>
      <trkpt lat="43.20453" lon="2.33328">
        <ele>115.5</ele>
        <time>2013-08-16T10:52:19Z</time>
      </trkpt>
      <trkpt lat="43.20459" lon="2.33328">
        <ele>115.5</ele>
        <time>2013-08-16T10:52:20Z</time>
      </trkpt>
      <trkpt lat="43.20464" lon="2.33329">
        <ele>115.5</ele>
        <time>2013-08-16T10:52:21Z</time>
      </trkpt>
      <trkpt lat="43.20469" lon="2.33329">
        <ele>115.5</ele>
        <time>2013-08-16T10:52:22Z</time>
      </trkpt>
      <trkpt lat="43.20475" lon="2.33329">
        <ele>115.5</ele>
        <time>2013-08-16T10:52:23Z</time>
      </trkpt>
      <trkpt lat="43.2048" lon="2.3333">
        <ele>115.5</ele>
        <time>2013-08-16T10:52:24Z</time>
      </trkpt>
      <trkpt lat="43.20486" lon="2.33333">
        <ele>115.5</ele>
        <time>2013-08-16T10:52:25Z</time>
      </trkpt>
      <trkpt lat="43.20491" lon="2.33336">
        <ele>115.5</ele>
        <time>2013-08-16T10:52:26Z</time>
      </trkpt>
      <trkpt lat="43.20568" lon="2.33401">
        <ele>113.09</ele>
        <time>2013-08-16T10:52:45Z</time>
      </trkpt>
      <trkpt lat="43.20627" lon="2.33465">
        <ele>112.13</ele>
        <time>2013-08-16T10:53:02Z</time>
      </trkpt>
      <trkpt lat="43.20686" lon="2.3354">
        <ele>112.13</ele>
        <time>2013-08-16T10:53:20Z</time>
      </trkpt>
      <trkpt lat="43.20733" lon="2.33611">
        <ele>111.65</ele>
        <time>2013-08-16T10:53:35Z</time>
      </trkpt>
      <trkpt lat="43.20762" lon="2.33654">
        <ele>111.17</ele>
        <time>2013-08-16T10:53:47Z</time>
      </trkpt>
      <trkpt lat="43.20778" lon="2.33677">
        <ele>110.69</ele>
        <time>2013-08-16T10:53:53Z</time>
      </trkpt>
      <trkpt lat="43.20835" lon="2.33754">
        <ele>110.21</ele>
        <time>2013-08-16T10:54:11Z</time>
      </trkpt>
      <trkpt lat="43.20896" lon="2.3382">
        <ele>109.73</ele>
        <time>2013-08-16T10:54:29Z</time>
      </trkpt>
      <trkpt lat="43.20943" lon="2.33886">
        <ele>111.17</ele>
        <time>2013-08-16T10:54:46Z</time>
      </trkpt>
      <trkpt lat="43.20979" lon="2.33943">
        <ele>112.13</ele>
        <time>2013-08-16T10:55:04Z</time>
      </trkpt>
      <trkpt lat="43.21014" lon="2.33997">
        <ele>112.61</ele>
        <time>2013-08-16T10:55:19Z</time>
      </trkpt>
      <trkpt lat="43.2105" lon="2.34052">
        <ele>113.57</ele>
        <time>2013-08-16T10:55:38Z</time>
      </trkpt>
      <trkpt lat="43.21075" lon="2.34098">
        <ele>116.46</ele>
        <time>2013-08-16T10:55:54Z</time>
      </trkpt>
      <trkpt lat="43.21092" lon="2.34139">
        <ele>116.94</ele>
        <time>2013-08-16T10:56:06Z</time>
      </trkpt>
      <trkpt lat="43.21116" lon="2.3417">
        <ele>117.9</ele>
        <time>2013-08-16T10:56:16Z</time>
      </trkpt>
      <trkpt lat="43.21149" lon="2.34231">
        <ele>116.46</ele>
        <time>2013-08-16T10:56:31Z</time>
      </trkpt>
      <trkpt lat="43.21169" lon="2.34264">
        <ele>116.94</ele>
        <time>2013-08-16T10:56:42Z</time>
      </trkpt>
      <trkpt lat="43.21171" lon="2.34263">
        <ele>116.94</ele>
        <time>2013-08-16T10:56:43Z</time>
      </trkpt>
      <trkpt lat="43.21172" lon="2.3426">
        <ele>116.94</ele>
        <time>2013-08-16T10:56:44Z</time>
      </trkpt>
      <trkpt lat="43.21173" lon="2.34257">
        <ele>116.94</ele>
        <time>2013-08-16T10:56:45Z</time>
      </trkpt>
      <trkpt lat="43.21174" lon="2.34252">
        <ele>116.94</ele>
        <time>2013-08-16T10:56:46Z</time>
      </trkpt>
      <trkpt lat="43.21174" lon="2.34247">
        <ele>116.94</ele>
        <time>2013-08-16T10:56:47Z</time>
      </trkpt>
      <trkpt lat="43.21173" lon="2.3421">
        <ele>115.98</ele>
        <time>2013-08-16T10:56:54Z</time>
      </trkpt>
      <trkpt lat="43.21175" lon="2.34205">
        <ele>115.5</ele>
        <time>2013-08-16T10:56:55Z</time>
      </trkpt>
      <trkpt lat="43.21178" lon="2.34202">
        <ele>115.01</ele>
        <time>2013-08-16T10:56:56Z</time>
      </trkpt>
      <trkpt lat="43.21181" lon="2.34202">
        <ele>114.53</ele>
        <time>2013-08-16T10:56:57Z</time>
      </trkpt>
      <trkpt lat="43.21185" lon="2.34203">
        <ele>114.05</ele>
        <time>2013-08-16T10:56:58Z</time>
      </trkpt>
      <trkpt lat="43.21189" lon="2.34204">
        <ele>114.05</ele>
        <time>2013-08-16T10:56:59Z</time>
      </trkpt>
      <trkpt lat="43.21194" lon="2.34206">
        <ele>113.57</ele>
        <time>2013-08-16T10:57:00Z</time>
      </trkpt>
      <trkpt lat="43.21215" lon="2.34209">
        <ele>112.13</ele>
        <time>2013-08-16T10:57:05Z</time>
      </trkpt>
      <trkpt lat="43.21224" lon="2.3421">
        <ele>112.61</ele>
        <time>2013-08-16T10:57:07Z</time>
      </trkpt>
      <trkpt lat="43.2124" lon="2.34208">
        <ele>112.61</ele>
        <time>2013-08-16T10:57:11Z</time>
      </trkpt>
      <trkpt lat="43.21243" lon="2.34203">
        <ele>112.61</ele>
        <time>2013-08-16T10:57:12Z</time>
      </trkpt>
      <trkpt lat="43.21245" lon="2.34196">
        <ele>113.09</ele>
        <time>2013-08-16T10:57:13Z</time>
      </trkpt>
      <trkpt lat="43.21245" lon="2.34189">
        <ele>112.61</ele>
        <time>2013-08-16T10:57:14Z</time>
      </trkpt>
      <trkpt lat="43.21246" lon="2.34182">
        <ele>112.61</ele>
        <time>2013-08-16T10:57:15Z</time>
      </trkpt>
      <trkpt lat="43.21256" lon="2.34112">
        <ele>109.73</ele>
        <time>2013-08-16T10:57:25Z</time>
      </trkpt>
      <trkpt lat="43.21259" lon="2.34111">
        <ele>110.21</ele>
        <time>2013-08-16T10:57:26Z</time>
      </trkpt>
      <trkpt lat="43.21263" lon="2.34111">
        <ele>110.21</ele>
        <time>2013-08-16T10:57:27Z</time>
      </trkpt>
      <trkpt lat="43.21272" lon="2.34114">
        <ele>110.21</ele>
        <time>2013-08-16T10:57:29Z</time>
      </trkpt>
      <trkpt lat="43.21277" lon="2.34114">
        <ele>110.21</ele>
        <time>2013-08-16T10:57:30Z</time>
      </trkpt>
      <trkpt lat="43.21281" lon="2.34114">
        <ele>110.21</ele>
        <time>2013-08-16T10:57:31Z</time>
      </trkpt>
      <trkpt lat="43.21286" lon="2.34115">
        <ele>110.21</ele>
        <time>2013-08-16T10:57:32Z</time>
      </trkpt>
      <trkpt lat="43.21291" lon="2.34117">
        <ele>110.21</ele>
        <time>2013-08-16T10:57:33Z</time>
      </trkpt>
      <trkpt lat="43.213" lon="2.34118">
        <ele>110.21</ele>
        <time>2013-08-16T10:57:35Z</time>
      </trkpt>
      <trkpt lat="43.21305" lon="2.34118">
        <ele>110.69</ele>
        <time>2013-08-16T10:57:36Z</time>
      </trkpt>
      <trkpt lat="43.21351" lon="2.34126">
        <ele>112.61</ele>
        <time>2013-08-16T10:57:48Z</time>
      </trkpt>
      <trkpt lat="43.21356" lon="2.34125">
        <ele>112.13</ele>
        <time>2013-08-16T10:57:50Z</time>
      </trkpt>
      <trkpt lat="43.21358" lon="2.34122">
        <ele>111.17</ele>
        <time>2013-08-16T10:58:02Z</time>
      </trkpt>
      <trkpt lat="43.21357" lon="2.34117">
        <ele>109.25</ele>
        <time>2013-08-16T10:58:15Z</time>
      </trkpt>
    </trkseg>
  </trk>
</gpx>